<?xml version="1.0" encoding="UTF-8" standalone="no" ?>
<gpx xmlns="http://www.topografix.com/GPX/1/1" creator="MapSource 6.16.3" version="1.1" xmlns:xsi="http://www.w3.org/2001/XMLSchema-instance" xsi:schemaLocation="http://www.topografix.com/GPX/1/1 http://www.topografix.com/GPX/1/1/gpx.xsd">

  <metadata>
    <link href="http://www.garmin.com">
      <text>Garmin International</text>
    </link>
    <time>2016-09-07T05:22:48Z</time>
    <bounds maxlat="44.394657611846924" maxlon="11.246910095214844" minlat="44.368393421173096" minlon="11.186099136248231"/>
  </metadata>

  <trk>
    <name>ACTIVE LOG</name>
    <trkseg>
      <trkpt lat="44.393842220306396" lon="11.245944499969482">
        <ele>108</ele>
        <time>2004-12-08T08:10:20Z</time>
      </trkpt>
      <trkpt lat="44.393734931945801" lon="11.246480941772461">
        <ele>107</ele>
        <time>2004-12-08T08:10:35Z</time>
      </trkpt>
      <trkpt lat="44.393606185913086" lon="11.246910095214844">
        <ele>107</ele>
        <time>2004-12-08T08:10:45Z</time>
      </trkpt>
      <trkpt lat="44.392940998077393" lon="11.246609687805176">
        <ele>106</ele>
        <time>2004-12-08T08:11:05Z</time>
      </trkpt>
      <trkpt lat="44.391911029815674" lon="11.246137619018555">
        <ele>106</ele>
        <time>2004-12-08T08:11:33Z</time>
      </trkpt>
      <trkpt lat="44.39150333404541" lon="11.245922958478332">
        <ele>106</ele>
        <time>2004-12-08T08:11:43Z</time>
      </trkpt>
      <trkpt lat="44.391331672668457" lon="11.245901584625244">
        <ele>106</ele>
        <time>2004-12-08T08:11:47Z</time>
      </trkpt>
      <trkpt lat="44.391224384307861" lon="11.245858669281006">
        <ele>106</ele>
        <time>2004-12-08T08:11:50Z</time>
      </trkpt>
      <trkpt lat="44.390966892242432" lon="11.245644092559814">
        <ele>106</ele>
        <time>2004-12-08T08:11:57Z</time>
      </trkpt>
      <trkpt lat="44.390087127685547" lon="11.245279312133789">
        <ele>105</ele>
        <time>2004-12-08T08:12:18Z</time>
      </trkpt>
      <trkpt lat="44.389443397521973" lon="11.244935989379883">
        <ele>107</ele>
        <time>2004-12-08T08:12:36Z</time>
      </trkpt>
      <trkpt lat="44.388971328735352" lon="11.244356632232666">
        <ele>110</ele>
        <time>2004-12-08T08:12:54Z</time>
      </trkpt>
      <trkpt lat="44.388027191162109" lon="11.243197917938232">
        <ele>110</ele>
        <time>2004-12-08T08:13:26Z</time>
      </trkpt>
      <trkpt lat="44.387662410736084" lon="11.242682933807373">
        <ele>111</ele>
        <time>2004-12-08T08:13:38Z</time>
      </trkpt>
      <trkpt lat="44.387619495391846" lon="11.242554187774658">
        <ele>111</ele>
        <time>2004-12-08T08:13:41Z</time>
      </trkpt>
      <trkpt lat="44.387469291687012" lon="11.241352558135986">
        <ele>108</ele>
        <time>2004-12-08T08:14:00Z</time>
      </trkpt>
      <trkpt lat="44.387362003326416" lon="11.24051570892334">
        <ele>107</ele>
        <time>2004-12-08T08:14:12Z</time>
      </trkpt>
      <trkpt lat="44.386804103851318" lon="11.239163875579834">
        <ele>105</ele>
        <time>2004-12-08T08:14:33Z</time>
      </trkpt>
      <trkpt lat="44.386246204376221" lon="11.238284111022949">
        <ele>106</ele>
        <time>2004-12-08T08:14:53Z</time>
      </trkpt>
      <trkpt lat="44.385945796966553" lon="11.237855041399598">
        <ele>107</ele>
        <time>2004-12-08T08:15:08Z</time>
      </trkpt>
      <trkpt lat="44.385967338457704" lon="11.237726211547852">
        <ele>107</ele>
        <time>2004-12-08T08:15:14Z</time>
      </trkpt>
      <trkpt lat="44.385988712310791" lon="11.237382888793945">
        <ele>109</ele>
        <time>2004-12-08T08:15:27Z</time>
      </trkpt>
      <trkpt lat="44.385666763409972" lon="11.236932277679443">
        <ele>111</ele>
        <time>2004-12-08T08:15:48Z</time>
      </trkpt>
      <trkpt lat="44.385559558868408" lon="11.236546039581299">
        <ele>113</ele>
        <time>2004-12-08T08:16:04Z</time>
      </trkpt>
      <trkpt lat="44.385581016540527" lon="11.236181259155273">
        <ele>116</ele>
        <time>2004-12-08T08:16:18Z</time>
      </trkpt>
      <trkpt lat="44.385623931884766" lon="11.235687732696533">
        <ele>118</ele>
        <time>2004-12-08T08:16:36Z</time>
      </trkpt>
      <trkpt lat="44.3857741355896" lon="11.235387325286865">
        <ele>121</ele>
        <time>2004-12-08T08:16:51Z</time>
      </trkpt>
      <trkpt lat="44.385902881622314" lon="11.235129833221436">
        <ele>124</ele>
        <time>2004-12-08T08:17:04Z</time>
      </trkpt>
      <trkpt lat="44.386117458343506" lon="11.234700679779053">
        <ele>126</ele>
        <time>2004-12-08T08:17:26Z</time>
      </trkpt>
      <trkpt lat="44.38622466288507" lon="11.23427152633667">
        <ele>129</ele>
        <time>2004-12-08T08:17:45Z</time>
      </trkpt>
      <trkpt lat="44.386289119720459" lon="11.233885288238525">
        <ele>132</ele>
        <time>2004-12-08T08:18:02Z</time>
      </trkpt>
      <trkpt lat="44.386375034227967" lon="11.233391761779785">
        <ele>135</ele>
        <time>2004-12-08T08:18:26Z</time>
      </trkpt>
      <trkpt lat="44.386439323425293" lon="11.233112812042236">
        <ele>138</ele>
        <time>2004-12-08T08:18:39Z</time>
      </trkpt>
      <trkpt lat="44.386482238769531" lon="11.232790863141418">
        <ele>140</ele>
        <time>2004-12-08T08:18:54Z</time>
      </trkpt>
      <trkpt lat="44.386375034227967" lon="11.232705116271973">
        <ele>140</ele>
        <time>2004-12-08T08:19:01Z</time>
      </trkpt>
      <trkpt lat="44.386074459180236" lon="11.232469081878662">
        <ele>140</ele>
        <time>2004-12-08T08:19:17Z</time>
      </trkpt>
      <trkpt lat="44.38581713475287" lon="11.232318878173828">
        <ele>140</ele>
        <time>2004-12-08T08:19:28Z</time>
      </trkpt>
      <trkpt lat="44.385430812835693" lon="11.23201847076416">
        <ele>139</ele>
        <time>2004-12-08T08:19:44Z</time>
      </trkpt>
      <trkpt lat="44.384958660230041" lon="11.231653690338135">
        <ele>140</ele>
        <time>2004-12-08T08:20:04Z</time>
      </trkpt>
      <trkpt lat="44.384550964459777" lon="11.231353282928467">
        <ele>140</ele>
        <time>2004-12-08T08:20:22Z</time>
      </trkpt>
      <trkpt lat="44.384036064147949" lon="11.230988502502441">
        <ele>141</ele>
        <time>2004-12-08T08:20:46Z</time>
      </trkpt>
      <trkpt lat="44.383628368377686" lon="11.230688095092773">
        <ele>142</ele>
        <time>2004-12-08T08:21:05Z</time>
      </trkpt>
      <trkpt lat="44.383370876312256" lon="11.230580806732178">
        <ele>142</ele>
        <time>2004-12-08T08:21:17Z</time>
      </trkpt>
      <trkpt lat="44.383220672607422" lon="11.230237483978271">
        <ele>144</ele>
        <time>2004-12-08T08:21:32Z</time>
      </trkpt>
      <trkpt lat="44.38326358795166" lon="11.229872703552246">
        <ele>146</ele>
        <time>2004-12-08T08:21:48Z</time>
      </trkpt>
      <trkpt lat="44.383413791656494" lon="11.229636669158936">
        <ele>150</ele>
        <time>2004-12-08T08:22:02Z</time>
      </trkpt>
      <trkpt lat="44.383585536852479" lon="11.229357719421387">
        <ele>153</ele>
        <time>2004-12-08T08:22:18Z</time>
      </trkpt>
      <trkpt lat="44.383735740557313" lon="11.229143058881164">
        <ele>156</ele>
        <time>2004-12-08T08:22:30Z</time>
      </trkpt>
      <trkpt lat="44.383800029754639" lon="11.229078769683838">
        <ele>189</ele>
        <time>2003-01-19T08:01:06Z</time>
      </trkpt>
      <trkpt lat="44.384057521820068" lon="11.228907108306885">
        <ele>192</ele>
        <time>2003-01-19T08:01:27Z</time>
      </trkpt>
      <trkpt lat="44.384229183197021" lon="11.228821277618408">
        <ele>195</ele>
        <time>2003-01-19T08:01:40Z</time>
      </trkpt>
      <trkpt lat="44.384550964459777" lon="11.228671073913574">
        <ele>198</ele>
        <time>2003-01-19T08:02:05Z</time>
      </trkpt>
      <trkpt lat="44.384679794311523" lon="11.22828483581543">
        <ele>201</ele>
        <time>2003-01-19T08:02:24Z</time>
      </trkpt>
      <trkpt lat="44.384915828704834" lon="11.227984428405762">
        <ele>205</ele>
        <time>2003-01-19T08:02:46Z</time>
      </trkpt>
      <trkpt lat="44.385130405426025" lon="11.227834224700928">
        <ele>209</ele>
        <time>2003-01-19T08:03:07Z</time>
      </trkpt>
      <trkpt lat="44.385323524475098" lon="11.227726936340332">
        <ele>213</ele>
        <time>2003-01-19T08:03:23Z</time>
      </trkpt>
      <trkpt lat="44.385495185852051" lon="11.227598190307617">
        <ele>216</ele>
        <time>2003-01-19T08:03:39Z</time>
      </trkpt>
      <trkpt lat="44.385559558868408" lon="11.227576732635498">
        <ele>219</ele>
        <time>2003-01-19T08:03:45Z</time>
      </trkpt>
      <trkpt lat="44.385559558868408" lon="11.227576732635498">
        <ele>219</ele>
        <time>2003-01-19T08:03:46Z</time>
      </trkpt>
      <trkpt lat="44.385731220245361" lon="11.227469360455871">
        <ele>223</ele>
        <time>2003-01-19T08:04:00Z</time>
      </trkpt>
      <trkpt lat="44.385881423950195" lon="11.227469360455871">
        <ele>226</ele>
        <time>2003-01-19T08:04:12Z</time>
      </trkpt>
      <trkpt lat="44.385902881622314" lon="11.227447986602783">
        <ele>227</ele>
        <time>2003-01-19T08:04:14Z</time>
      </trkpt>
      <trkpt lat="44.386053085327148" lon="11.227383613586426">
        <ele>230</ele>
        <time>2003-01-19T08:04:25Z</time>
      </trkpt>
      <trkpt lat="44.386074459180236" lon="11.227383613586426">
        <ele>231</ele>
        <time>2003-01-19T08:04:26Z</time>
      </trkpt>
      <trkpt lat="44.386246204376221" lon="11.227362239733338">
        <ele>234</ele>
        <time>2003-01-19T08:04:39Z</time>
      </trkpt>
      <trkpt lat="44.386353492736816" lon="11.227383613586426">
        <ele>237</ele>
        <time>2003-01-19T08:04:50Z</time>
      </trkpt>
      <trkpt lat="44.38650369644165" lon="11.227383613586426">
        <ele>241</ele>
        <time>2003-01-19T08:05:05Z</time>
      </trkpt>
      <trkpt lat="44.386610984802246" lon="11.227405071258545">
        <ele>244</ele>
        <time>2003-01-19T08:05:19Z</time>
      </trkpt>
      <trkpt lat="44.38676118850708" lon="11.227405071258545">
        <ele>247</ele>
        <time>2003-01-19T08:05:33Z</time>
      </trkpt>
      <trkpt lat="44.386889934539795" lon="11.227340698242188">
        <ele>250</ele>
        <time>2003-01-19T08:05:49Z</time>
      </trkpt>
      <trkpt lat="44.386997222900391" lon="11.227340698242188">
        <ele>253</ele>
        <time>2003-01-19T08:06:03Z</time>
      </trkpt>
      <trkpt lat="44.387125968933105" lon="11.227340698242188">
        <ele>256</ele>
        <time>2003-01-19T08:06:16Z</time>
      </trkpt>
      <trkpt lat="44.387233341112733" lon="11.227340698242188">
        <ele>260</ele>
        <time>2003-01-19T08:06:24Z</time>
      </trkpt>
      <trkpt lat="44.387340461835265" lon="11.227340698242188">
        <ele>263</ele>
        <time>2003-01-19T08:06:31Z</time>
      </trkpt>
      <trkpt lat="44.387362003326416" lon="11.227340698242188">
        <ele>263</ele>
        <time>2003-01-19T08:06:32Z</time>
      </trkpt>
      <trkpt lat="44.387490665540099" lon="11.227426528930664">
        <ele>266</ele>
        <time>2003-01-19T08:06:43Z</time>
      </trkpt>
      <trkpt lat="44.387619495391846" lon="11.227576732635498">
        <ele>270</ele>
        <time>2003-01-19T08:06:56Z</time>
      </trkpt>
      <trkpt lat="44.387726783752441" lon="11.227641105651855">
        <ele>273</ele>
        <time>2003-01-19T08:07:05Z</time>
      </trkpt>
      <trkpt lat="44.387834072113037" lon="11.227641105651855">
        <ele>275</ele>
        <time>2003-01-19T08:07:15Z</time>
      </trkpt>
      <trkpt lat="44.38800573348999" lon="11.227469360455871">
        <ele>278</ele>
        <time>2003-01-19T08:07:32Z</time>
      </trkpt>
      <trkpt lat="44.388091564178467" lon="11.227233409881592">
        <ele>282</ele>
        <time>2003-01-19T08:07:47Z</time>
      </trkpt>
      <trkpt lat="44.388113021850586" lon="11.226933002471924">
        <ele>284</ele>
        <time>2003-01-19T08:08:06Z</time>
      </trkpt>
      <trkpt lat="44.388113021850586" lon="11.226825714111328">
        <ele>287</ele>
        <time>2003-01-19T08:08:13Z</time>
      </trkpt>
      <trkpt lat="44.388113021850586" lon="11.226804340258241">
        <ele>287</ele>
        <time>2003-01-19T08:08:14Z</time>
      </trkpt>
      <trkpt lat="44.388113021850586" lon="11.226611137390137">
        <ele>289</ele>
        <time>2003-01-19T08:08:26Z</time>
      </trkpt>
      <trkpt lat="44.388091564178467" lon="11.226460933685303">
        <ele>290</ele>
        <time>2003-01-19T08:08:36Z</time>
      </trkpt>
      <trkpt lat="44.38826322555542" lon="11.226439476013184">
        <ele>290</ele>
        <time>2003-01-19T08:08:50Z</time>
      </trkpt>
      <trkpt lat="44.388284683227539" lon="11.226460933685303">
        <ele>291</ele>
        <time>2003-01-19T08:08:54Z</time>
      </trkpt>
      <trkpt lat="44.388327598571777" lon="11.22652530670166">
        <ele>292</ele>
        <time>2003-01-19T08:08:58Z</time>
      </trkpt>
      <trkpt lat="44.388563632965088" lon="11.226675510406494">
        <ele>294</ele>
        <time>2003-01-19T08:09:21Z</time>
      </trkpt>
      <trkpt lat="44.388756835833192" lon="11.22652530670166">
        <ele>296</ele>
        <time>2003-01-19T08:09:39Z</time>
      </trkpt>
      <trkpt lat="44.388821125030518" lon="11.226482391357422">
        <ele>296</ele>
        <time>2003-01-19T08:09:46Z</time>
      </trkpt>
      <trkpt lat="44.389078617095947" lon="11.226696968078613">
        <ele>298</ele>
        <time>2003-01-19T08:10:09Z</time>
      </trkpt>
      <trkpt lat="44.389357566833496" lon="11.226911460980773">
        <ele>299</ele>
        <time>2003-01-19T08:10:29Z</time>
      </trkpt>
      <trkpt lat="44.389636516571045" lon="11.227083206176758">
        <ele>297</ele>
        <time>2003-01-19T08:10:45Z</time>
      </trkpt>
      <trkpt lat="44.389657974243164" lon="11.22704029083252">
        <ele>297</ele>
        <time>2003-01-19T08:10:58Z</time>
      </trkpt>
      <trkpt lat="44.389679431915283" lon="11.226954460144043">
        <ele>300</ele>
        <time>2003-01-19T08:12:21Z</time>
      </trkpt>
      <trkpt lat="44.389679431915283" lon="11.226804340258241">
        <ele>304</ele>
        <time>2003-01-19T08:12:31Z</time>
      </trkpt>
      <trkpt lat="44.389679431915283" lon="11.226696968078613">
        <ele>306</ele>
        <time>2003-01-19T08:12:38Z</time>
      </trkpt>
      <trkpt lat="44.389636516571045" lon="11.226332187652588">
        <ele>310</ele>
        <time>2003-01-19T08:12:57Z</time>
      </trkpt>
      <trkpt lat="44.389529228210449" lon="11.226010322570801">
        <ele>313</ele>
        <time>2003-01-19T08:13:17Z</time>
      </trkpt>
      <trkpt lat="44.389357566833496" lon="11.225645458325744">
        <ele>315</ele>
        <time>2003-01-19T08:13:40Z</time>
      </trkpt>
      <trkpt lat="44.389207363128662" lon="11.225366592407227">
        <ele>319</ele>
        <time>2003-01-19T08:13:59Z</time>
      </trkpt>
      <trkpt lat="44.389078617095947" lon="11.225152015686035">
        <ele>320</ele>
        <time>2003-01-19T08:14:13Z</time>
      </trkpt>
      <trkpt lat="44.388992786407471" lon="11.225066184997559">
        <ele>321</ele>
        <time>2003-01-19T08:14:19Z</time>
      </trkpt>
      <trkpt lat="44.388907039538026" lon="11.224937438964844">
        <ele>323</ele>
        <time>2003-01-19T08:14:27Z</time>
      </trkpt>
      <trkpt lat="44.388928413391113" lon="11.224915981292725">
        <ele>323</ele>
        <time>2003-01-19T08:14:29Z</time>
      </trkpt>
      <trkpt lat="44.388992786407471" lon="11.224915981292725">
        <ele>324</ele>
        <time>2003-01-19T08:14:37Z</time>
      </trkpt>
      <trkpt lat="44.389121532440186" lon="11.225044727325439">
        <ele>328</ele>
        <time>2003-01-19T08:14:49Z</time>
      </trkpt>
      <trkpt lat="44.389228820800781" lon="11.225152015686035">
        <ele>331</ele>
        <time>2003-01-19T08:15:03Z</time>
      </trkpt>
      <trkpt lat="44.389228820800781" lon="11.225152015686035">
        <ele>331</ele>
        <time>2003-01-19T08:15:04Z</time>
      </trkpt>
      <trkpt lat="44.389336109161377" lon="11.225302219390869">
        <ele>335</ele>
        <time>2003-01-19T08:15:18Z</time>
      </trkpt>
      <trkpt lat="44.389443397521973" lon="11.225409507751465">
        <ele>338</ele>
        <time>2003-01-19T08:15:32Z</time>
      </trkpt>
      <trkpt lat="44.389615058898926" lon="11.225516796112061">
        <ele>342</ele>
        <time>2003-01-19T08:15:49Z</time>
      </trkpt>
      <trkpt lat="44.389743804931641" lon="11.225602626800537">
        <ele>345</ele>
        <time>2003-01-19T08:16:00Z</time>
      </trkpt>
      <trkpt lat="44.389808177947998" lon="11.225645458325744">
        <ele>346</ele>
        <time>2003-01-19T08:16:06Z</time>
      </trkpt>
      <trkpt lat="44.389851093292236" lon="11.225581169128418">
        <ele>347</ele>
        <time>2003-01-19T08:16:20Z</time>
      </trkpt>
      <trkpt lat="44.389808177947998" lon="11.225538337603211">
        <ele>349</ele>
        <time>2003-01-19T08:16:50Z</time>
      </trkpt>
      <trkpt lat="44.389786720275879" lon="11.225473880767822">
        <ele>350</ele>
        <time>2003-01-19T08:16:57Z</time>
      </trkpt>
      <trkpt lat="44.38976526260376" lon="11.225388133898377">
        <ele>351</ele>
        <time>2003-01-19T08:17:15Z</time>
      </trkpt>
      <trkpt lat="44.389700889587402" lon="11.225173473358154">
        <ele>354</ele>
        <time>2003-01-19T08:17:41Z</time>
      </trkpt>
      <trkpt lat="44.389593601226807" lon="11.224958896636963">
        <ele>356</ele>
        <time>2003-01-19T08:18:06Z</time>
      </trkpt>
      <trkpt lat="44.389529228210449" lon="11.224594116210937">
        <ele>359</ele>
        <time>2003-01-19T08:18:28Z</time>
      </trkpt>
      <trkpt lat="44.389379024505615" lon="11.224315166473389">
        <ele>361</ele>
        <time>2003-01-19T08:18:54Z</time>
      </trkpt>
      <trkpt lat="44.389421939849854" lon="11.224315166473389">
        <ele>362</ele>
        <time>2003-01-19T08:19:29Z</time>
      </trkpt>
      <trkpt lat="44.389464939013124" lon="11.22429370880127">
        <ele>363</ele>
        <time>2003-01-19T08:19:49Z</time>
      </trkpt>
      <trkpt lat="44.389615058898926" lon="11.224079132080078">
        <ele>367</ele>
        <time>2003-01-19T08:20:03Z</time>
      </trkpt>
      <trkpt lat="44.389636516571045" lon="11.224014759063721">
        <ele>368</ele>
        <time>2003-01-19T08:20:06Z</time>
      </trkpt>
      <trkpt lat="44.389636516571045" lon="11.223864639177918">
        <ele>368</ele>
        <time>2003-01-19T08:20:30Z</time>
      </trkpt>
      <trkpt lat="44.389636516571045" lon="11.223864639177918">
        <ele>367</ele>
        <time>2003-01-19T08:20:59Z</time>
      </trkpt>
      <trkpt lat="44.389636516571045" lon="11.223864639177918">
        <ele>366</ele>
        <time>2003-01-19T08:22:20Z</time>
      </trkpt>
      <trkpt lat="44.389808177947998" lon="11.223821640014648">
        <ele>369</ele>
        <time>2003-01-19T08:22:31Z</time>
      </trkpt>
      <trkpt lat="44.389915466308594" lon="11.22377872467041">
        <ele>371</ele>
        <time>2003-01-19T08:22:37Z</time>
      </trkpt>
      <trkpt lat="44.389979839324951" lon="11.22377872467041">
        <ele>373</ele>
        <time>2003-01-19T08:22:40Z</time>
      </trkpt>
      <trkpt lat="44.390108585357666" lon="11.223735809326172">
        <ele>376</ele>
        <time>2003-01-19T08:22:48Z</time>
      </trkpt>
      <trkpt lat="44.390194416046143" lon="11.223714435473084">
        <ele>379</ele>
        <time>2003-01-19T08:22:56Z</time>
      </trkpt>
      <trkpt lat="44.390237331390381" lon="11.223757266998291">
        <ele>382</ele>
        <time>2003-01-19T08:23:01Z</time>
      </trkpt>
      <trkpt lat="44.390323162078857" lon="11.22377872467041">
        <ele>382</ele>
        <time>2003-01-19T08:27:55Z</time>
      </trkpt>
      <trkpt lat="44.390344619750977" lon="11.223757266998291">
        <ele>383</ele>
        <time>2003-01-19T08:30:01Z</time>
      </trkpt>
      <trkpt lat="44.390344619750977" lon="11.223735809326172">
        <ele>383</ele>
        <time>2003-01-19T08:30:11Z</time>
      </trkpt>
      <trkpt lat="44.390366077423096" lon="11.223692893981934">
        <ele>384</ele>
        <time>2003-01-19T08:30:15Z</time>
      </trkpt>
      <trkpt lat="44.390451908111572" lon="11.22352123260498">
        <ele>385</ele>
        <time>2003-01-19T08:30:30Z</time>
      </trkpt>
      <trkpt lat="44.39051628112793" lon="11.223456859588623">
        <ele>388</ele>
        <time>2003-01-19T08:31:11Z</time>
      </trkpt>
      <trkpt lat="44.390709400177002" lon="11.223177909851074">
        <ele>392</ele>
        <time>2003-01-19T08:31:28Z</time>
      </trkpt>
      <trkpt lat="44.390988266095519" lon="11.222834587097168">
        <ele>394</ele>
        <time>2003-01-19T08:31:50Z</time>
      </trkpt>
      <trkpt lat="44.391074180603027" lon="11.222448265179992">
        <ele>396</ele>
        <time>2003-01-19T08:32:09Z</time>
      </trkpt>
      <trkpt lat="44.391245758160949" lon="11.222126483917236">
        <ele>399</ele>
        <time>2003-01-19T08:32:29Z</time>
      </trkpt>
      <trkpt lat="44.391353130340576" lon="11.221804618835449">
        <ele>402</ele>
        <time>2003-01-19T08:32:54Z</time>
      </trkpt>
      <trkpt lat="44.391460418701172" lon="11.221654415130615">
        <ele>404</ele>
        <time>2003-01-19T08:33:04Z</time>
      </trkpt>
      <trkpt lat="44.39176082611084" lon="11.221375465393066">
        <ele>406</ele>
        <time>2003-01-19T08:33:29Z</time>
      </trkpt>
      <trkpt lat="44.391825199127197" lon="11.22133263386786">
        <ele>408</ele>
        <time>2003-01-19T08:33:37Z</time>
      </trkpt>
      <trkpt lat="44.391868114471436" lon="11.221354007720947">
        <ele>409</ele>
        <time>2003-01-19T08:33:42Z</time>
      </trkpt>
      <trkpt lat="44.391889572143555" lon="11.22133263386786">
        <ele>410</ele>
        <time>2003-01-19T08:33:48Z</time>
      </trkpt>
      <trkpt lat="44.392125606536865" lon="11.221096515655518">
        <ele>412</ele>
        <time>2003-01-19T08:34:11Z</time>
      </trkpt>
      <trkpt lat="44.392383098602295" lon="11.220860481262207">
        <ele>414</ele>
        <time>2003-01-19T08:34:36Z</time>
      </trkpt>
      <trkpt lat="44.392576217651367" lon="11.220774734392762">
        <ele>416</ele>
        <time>2003-01-19T08:35:00Z</time>
      </trkpt>
      <trkpt lat="44.392726421356201" lon="11.220645904541016">
        <ele>417</ele>
        <time>2003-01-19T08:35:22Z</time>
      </trkpt>
      <trkpt lat="44.392919540405273" lon="11.220495700836182">
        <ele>420</ele>
        <time>2003-01-19T08:35:48Z</time>
      </trkpt>
      <trkpt lat="44.39300537109375" lon="11.220367038622499">
        <ele>422</ele>
        <time>2003-01-19T08:35:58Z</time>
      </trkpt>
      <trkpt lat="44.393048286437988" lon="11.220238208770752">
        <ele>423</ele>
        <time>2003-01-19T08:36:15Z</time>
      </trkpt>
      <trkpt lat="44.393091201782227" lon="11.220109462738037">
        <ele>424</ele>
        <time>2003-01-19T08:36:29Z</time>
      </trkpt>
      <trkpt lat="44.393155574798584" lon="11.220002174377441">
        <ele>426</ele>
        <time>2003-01-19T08:36:48Z</time>
      </trkpt>
      <trkpt lat="44.393327236175537" lon="11.219937801361084">
        <ele>427</ele>
        <time>2003-01-19T08:37:06Z</time>
      </trkpt>
      <trkpt lat="44.393649101257324" lon="11.219959259033203">
        <ele>430</ele>
        <time>2003-01-19T08:37:25Z</time>
      </trkpt>
      <trkpt lat="44.393734931945801" lon="11.219980716705322">
        <ele>432</ele>
        <time>2003-01-19T08:37:35Z</time>
      </trkpt>
      <trkpt lat="44.393820762634277" lon="11.219916259869933">
        <ele>432</ele>
        <time>2003-01-19T08:37:42Z</time>
      </trkpt>
      <trkpt lat="44.393820762634277" lon="11.219809139147401">
        <ele>435</ele>
        <time>2003-01-19T08:37:52Z</time>
      </trkpt>
      <trkpt lat="44.393649101257324" lon="11.219680309295654">
        <ele>438</ele>
        <time>2003-01-19T08:38:13Z</time>
      </trkpt>
      <trkpt lat="44.393627559766173" lon="11.219658935442567">
        <ele>438</ele>
        <time>2003-01-19T08:38:16Z</time>
      </trkpt>
      <trkpt lat="44.393520439043641" lon="11.219422817230225">
        <ele>442</ele>
        <time>2003-01-19T08:38:36Z</time>
      </trkpt>
      <trkpt lat="44.393455982208252" lon="11.219122409820557">
        <ele>445</ele>
        <time>2003-01-19T08:38:58Z</time>
      </trkpt>
      <trkpt lat="44.393391609191895" lon="11.218886375427246">
        <ele>448</ele>
        <time>2003-01-19T08:39:16Z</time>
      </trkpt>
      <trkpt lat="44.393413066864014" lon="11.218714714050293">
        <ele>451</ele>
        <time>2003-01-19T08:39:37Z</time>
      </trkpt>
      <trkpt lat="44.393434524536133" lon="11.218671798706055">
        <ele>452</ele>
        <time>2003-01-19T08:40:03Z</time>
      </trkpt>
      <trkpt lat="44.393413066864014" lon="11.218628883361816">
        <ele>453</ele>
        <time>2003-01-19T08:40:23Z</time>
      </trkpt>
      <trkpt lat="44.393434524536133" lon="11.218543136492372">
        <ele>456</ele>
        <time>2003-01-19T08:40:28Z</time>
      </trkpt>
      <trkpt lat="44.393477439880371" lon="11.218349933624268">
        <ele>459</ele>
        <time>2003-01-19T08:40:39Z</time>
      </trkpt>
      <trkpt lat="44.393455982208252" lon="11.218328475952148">
        <ele>459</ele>
        <time>2003-01-19T08:40:40Z</time>
      </trkpt>
      <trkpt lat="44.393434524536133" lon="11.218006610870361">
        <ele>462</ele>
        <time>2003-01-19T08:41:01Z</time>
      </trkpt>
      <trkpt lat="44.393348693847656" lon="11.217770576477051">
        <ele>464</ele>
        <time>2003-01-19T08:41:21Z</time>
      </trkpt>
      <trkpt lat="44.393327236175537" lon="11.217555999755859">
        <ele>465</ele>
        <time>2003-01-19T08:41:44Z</time>
      </trkpt>
      <trkpt lat="44.393305778503418" lon="11.217470169067383">
        <ele>466</ele>
        <time>2003-01-19T08:41:56Z</time>
      </trkpt>
      <trkpt lat="44.393241405487061" lon="11.217384338378906">
        <ele>468</ele>
        <time>2003-01-19T08:42:03Z</time>
      </trkpt>
      <trkpt lat="44.39321986399591" lon="11.217126762494445">
        <ele>469</ele>
        <time>2003-01-19T08:42:27Z</time>
      </trkpt>
      <trkpt lat="44.393177032470703" lon="11.216976558789611">
        <ele>471</ele>
        <time>2003-01-19T08:42:49Z</time>
      </trkpt>
      <trkpt lat="44.39326286315918" lon="11.21654748916626">
        <ele>473</ele>
        <time>2003-01-19T08:43:22Z</time>
      </trkpt>
      <trkpt lat="44.393284320831299" lon="11.216504573822021">
        <ele>474</ele>
        <time>2003-01-19T08:43:27Z</time>
      </trkpt>
      <trkpt lat="44.393584728240967" lon="11.21628999710083">
        <ele>477</ele>
        <time>2003-01-19T08:43:47Z</time>
      </trkpt>
      <trkpt lat="44.393799304962158" lon="11.21601096354425">
        <ele>480</ele>
        <time>2003-01-19T08:44:02Z</time>
      </trkpt>
      <trkpt lat="44.393820762634277" lon="11.215925216674805">
        <ele>480</ele>
        <time>2003-01-19T08:44:06Z</time>
      </trkpt>
      <trkpt lat="44.393713474273682" lon="11.215496063232422">
        <ele>481</ele>
        <time>2003-01-19T08:44:24Z</time>
      </trkpt>
      <trkpt lat="44.39349889755249" lon="11.215023994445801">
        <ele>483</ele>
        <time>2003-01-19T08:44:46Z</time>
      </trkpt>
      <trkpt lat="44.393434524536133" lon="11.214852333068848">
        <ele>486</ele>
        <time>2003-01-19T08:44:56Z</time>
      </trkpt>
      <trkpt lat="44.393413066864014" lon="11.214723587036133">
        <ele>487</ele>
        <time>2003-01-19T08:45:03Z</time>
      </trkpt>
      <trkpt lat="44.393370235338807" lon="11.214637840166688">
        <ele>488</ele>
        <time>2003-01-19T08:45:08Z</time>
      </trkpt>
      <trkpt lat="44.393305778503418" lon="11.214444637298584">
        <ele>491</ele>
        <time>2003-01-19T08:45:22Z</time>
      </trkpt>
      <trkpt lat="44.39326286315918" lon="11.214208602905273">
        <ele>494</ele>
        <time>2003-01-19T08:45:42Z</time>
      </trkpt>
      <trkpt lat="44.39326286315918" lon="11.21407994069159">
        <ele>495</ele>
        <time>2003-01-19T08:45:52Z</time>
      </trkpt>
      <trkpt lat="44.393284320831299" lon="11.213865280151367">
        <ele>497</ele>
        <time>2003-01-19T08:46:09Z</time>
      </trkpt>
      <trkpt lat="44.393327236175537" lon="11.213693618774414">
        <ele>500</ele>
        <time>2003-01-19T08:46:21Z</time>
      </trkpt>
      <trkpt lat="44.393284320831299" lon="11.213371837511659">
        <ele>503</ele>
        <time>2003-01-19T08:46:42Z</time>
      </trkpt>
      <trkpt lat="44.393241405487061" lon="11.213071262463927">
        <ele>506</ele>
        <time>2003-01-19T08:47:01Z</time>
      </trkpt>
      <trkpt lat="44.39321986399591" lon="11.212813938036561">
        <ele>509</ele>
        <time>2003-01-19T08:47:19Z</time>
      </trkpt>
      <trkpt lat="44.39321986399591" lon="11.212470531463623">
        <ele>512</ele>
        <time>2003-01-19T08:47:40Z</time>
      </trkpt>
      <trkpt lat="44.39321986399591" lon="11.212427616119385">
        <ele>509</ele>
        <time>2003-01-19T08:58:00Z</time>
      </trkpt>
      <trkpt lat="44.393134117126465" lon="11.212277412414551">
        <ele>509</ele>
        <time>2003-01-19T08:58:05Z</time>
      </trkpt>
      <trkpt lat="44.392876625061035" lon="11.212062835693359">
        <ele>505</ele>
        <time>2003-01-19T08:58:11Z</time>
      </trkpt>
      <trkpt lat="44.392769336700439" lon="11.211977005004883">
        <ele>503</ele>
        <time>2003-01-19T08:58:14Z</time>
      </trkpt>
      <trkpt lat="44.392640590667725" lon="11.211869716644287">
        <ele>502</ele>
        <time>2003-01-19T08:58:17Z</time>
      </trkpt>
      <trkpt lat="44.392468929290771" lon="11.211633682250977">
        <ele>500</ele>
        <time>2003-01-19T08:58:23Z</time>
      </trkpt>
      <trkpt lat="44.392426013946533" lon="11.211333274841309">
        <ele>499</ele>
        <time>2003-01-19T08:58:28Z</time>
      </trkpt>
      <trkpt lat="44.392490386962891" lon="11.210968494415283">
        <ele>500</ele>
        <time>2003-01-19T08:58:39Z</time>
      </trkpt>
      <trkpt lat="44.392597675323486" lon="11.210367679595947">
        <ele>502</ele>
        <time>2003-01-19T08:58:58Z</time>
      </trkpt>
      <trkpt lat="44.392661964520812" lon="11.209895610809326">
        <ele>500</ele>
        <time>2003-01-19T08:59:08Z</time>
      </trkpt>
      <trkpt lat="44.392554759979248" lon="11.209423458203673">
        <ele>502</ele>
        <time>2003-01-19T08:59:19Z</time>
      </trkpt>
      <trkpt lat="44.392576217651367" lon="11.209208965301514">
        <ele>501</ele>
        <time>2003-01-19T08:59:23Z</time>
      </trkpt>
      <trkpt lat="44.392855167388916" lon="11.208693981170654">
        <ele>503</ele>
        <time>2003-01-19T08:59:44Z</time>
      </trkpt>
      <trkpt lat="44.39300537109375" lon="11.208457862958312">
        <ele>503</ele>
        <time>2003-01-19T08:59:56Z</time>
      </trkpt>
      <trkpt lat="44.39321986399591" lon="11.208457862958312">
        <ele>506</ele>
        <time>2003-01-19T09:00:08Z</time>
      </trkpt>
      <trkpt lat="44.393434524536133" lon="11.208393573760986">
        <ele>509</ele>
        <time>2003-01-19T09:00:19Z</time>
      </trkpt>
      <trkpt lat="44.393649101257324" lon="11.208157539367676">
        <ele>512</ele>
        <time>2003-01-19T09:00:35Z</time>
      </trkpt>
      <trkpt lat="44.393692016601563" lon="11.207835674285889">
        <ele>515</ele>
        <time>2003-01-19T09:00:51Z</time>
      </trkpt>
      <trkpt lat="44.393734931945801" lon="11.207621097564697">
        <ele>517</ele>
        <time>2003-01-19T09:01:08Z</time>
      </trkpt>
      <trkpt lat="44.393734931945801" lon="11.207599639892578">
        <ele>517</ele>
        <time>2003-01-19T09:01:09Z</time>
      </trkpt>
      <trkpt lat="44.393563270568848" lon="11.207106113433838">
        <ele>513</ele>
        <time>2003-01-19T09:01:22Z</time>
      </trkpt>
      <trkpt lat="44.393520439043641" lon="11.206526840105653">
        <ele>513</ele>
        <time>2003-01-19T09:01:38Z</time>
      </trkpt>
      <trkpt lat="44.393606185913086" lon="11.205883026123047">
        <ele>514</ele>
        <time>2003-01-19T09:01:59Z</time>
      </trkpt>
      <trkpt lat="44.393670558929443" lon="11.205604076385498">
        <ele>517</ele>
        <time>2003-01-19T09:02:11Z</time>
      </trkpt>
      <trkpt lat="44.393842220306396" lon="11.205153465270996">
        <ele>518</ele>
        <time>2003-01-19T09:02:31Z</time>
      </trkpt>
      <trkpt lat="44.394164085388184" lon="11.204702937975526">
        <ele>518</ele>
        <time>2003-01-19T09:02:50Z</time>
      </trkpt>
      <trkpt lat="44.394421577453613" lon="11.204145038500428">
        <ele>520</ele>
        <time>2003-01-19T09:03:13Z</time>
      </trkpt>
      <trkpt lat="44.394528865814209" lon="11.203629970550537">
        <ele>521</ele>
        <time>2003-01-19T09:03:35Z</time>
      </trkpt>
      <trkpt lat="44.394571781158447" lon="11.203372478485107">
        <ele>521</ele>
        <time>2003-01-19T09:03:49Z</time>
      </trkpt>
      <trkpt lat="44.394486034289002" lon="11.20330810546875">
        <ele>523</ele>
        <time>2003-01-19T09:03:53Z</time>
      </trkpt>
      <trkpt lat="44.394400119781494" lon="11.203179359436035">
        <ele>529</ele>
        <time>2003-01-19T09:10:56Z</time>
      </trkpt>
      <trkpt lat="44.394657611846924" lon="11.202750205993652">
        <ele>532</ele>
        <time>2003-01-19T09:10:53Z</time>
      </trkpt>
      <trkpt lat="44.394657611846924" lon="11.202707290649414">
        <ele>534</ele>
        <time>2003-01-19T09:10:52Z</time>
      </trkpt>
      <trkpt lat="44.394571781158447" lon="11.20255708694458">
        <ele>537</ele>
        <time>2003-01-19T09:10:20Z</time>
      </trkpt>
      <trkpt lat="44.39450740814209" lon="11.202342510223389">
        <ele>535</ele>
        <time>2003-01-19T09:10:08Z</time>
      </trkpt>
      <trkpt lat="44.394421577453613" lon="11.202127933502197">
        <ele>532</ele>
        <time>2003-01-19T09:09:56Z</time>
      </trkpt>
      <trkpt lat="44.394357204437256" lon="11.201913440600038">
        <ele>529</ele>
        <time>2003-01-19T09:09:47Z</time>
      </trkpt>
      <trkpt lat="44.394121170043945" lon="11.201291084289551">
        <ele>526</ele>
        <time>2003-01-19T09:09:23Z</time>
      </trkpt>
      <trkpt lat="44.393970966339111" lon="11.200668811798096">
        <ele>525</ele>
        <time>2003-01-19T09:09:03Z</time>
      </trkpt>
      <trkpt lat="44.39399242401123" lon="11.200218200683594">
        <ele>523</ele>
        <time>2003-01-19T09:08:44Z</time>
      </trkpt>
      <trkpt lat="44.39401388168335" lon="11.200046539306641">
        <ele>520</ele>
        <time>2003-01-19T09:08:36Z</time>
      </trkpt>
      <trkpt lat="44.393885135650635" lon="11.199896335601807">
        <ele>517</ele>
        <time>2003-01-19T09:08:25Z</time>
      </trkpt>
      <trkpt lat="44.393563270568848" lon="11.200025081634521">
        <ele>513</ele>
        <time>2003-01-19T09:08:07Z</time>
      </trkpt>
      <trkpt lat="44.393455982208252" lon="11.200196659192443">
        <ele>511</ele>
        <time>2003-01-19T09:22:10Z</time>
      </trkpt>
      <trkpt lat="44.393112659454346" lon="11.199853420257568">
        <ele>509</ele>
        <time>2003-01-19T09:22:26Z</time>
      </trkpt>
      <trkpt lat="44.392769336700439" lon="11.199445724487305">
        <ele>509</ele>
        <time>2003-01-19T09:22:44Z</time>
      </trkpt>
      <trkpt lat="44.392576217651367" lon="11.199123859405518">
        <ele>510</ele>
        <time>2003-01-19T09:23:01Z</time>
      </trkpt>
      <trkpt lat="44.392361640930176" lon="11.198737621307373">
        <ele>508</ele>
        <time>2003-01-19T09:23:18Z</time>
      </trkpt>
      <trkpt lat="44.392189979553223" lon="11.198458671569824">
        <ele>505</ele>
        <time>2003-01-19T09:23:27Z</time>
      </trkpt>
      <trkpt lat="44.392168521881104" lon="11.198415840044618">
        <ele>504</ele>
        <time>2003-01-19T09:23:28Z</time>
      </trkpt>
      <trkpt lat="44.391932487487793" lon="11.197986602783203">
        <ele>501</ele>
        <time>2003-01-19T09:23:36Z</time>
      </trkpt>
      <trkpt lat="44.391524791717529" lon="11.197300041094422">
        <ele>498</ele>
        <time>2003-01-19T09:23:50Z</time>
      </trkpt>
      <trkpt lat="44.39150333404541" lon="11.197235584259033">
        <ele>498</ele>
        <time>2003-01-19T09:23:51Z</time>
      </trkpt>
      <trkpt lat="44.391310214996338" lon="11.196913719177246">
        <ele>496</ele>
        <time>2003-01-19T09:23:58Z</time>
      </trkpt>
      <trkpt lat="44.391245758160949" lon="11.19680643081665">
        <ele>495</ele>
        <time>2003-01-19T09:24:00Z</time>
      </trkpt>
      <trkpt lat="44.391160011291504" lon="11.19657039642334">
        <ele>492</ele>
        <time>2003-01-19T09:24:04Z</time>
      </trkpt>
      <trkpt lat="44.391160011291504" lon="11.196506023406982">
        <ele>491</ele>
        <time>2003-01-19T09:24:05Z</time>
      </trkpt>
      <trkpt lat="44.391138637438416" lon="11.196355819702148">
        <ele>491</ele>
        <time>2003-01-19T09:24:07Z</time>
      </trkpt>
      <trkpt lat="44.391117095947266" lon="11.196012496948242">
        <ele>490</ele>
        <time>2003-01-19T09:24:11Z</time>
      </trkpt>
      <trkpt lat="44.391031265258789" lon="11.195669174194336">
        <ele>488</ele>
        <time>2003-01-19T09:24:15Z</time>
      </trkpt>
      <trkpt lat="44.390623569488525" lon="11.194875240325928">
        <ele>486</ele>
        <time>2003-01-19T09:24:26Z</time>
      </trkpt>
      <trkpt lat="44.390301704406738" lon="11.19431734085083">
        <ele>487</ele>
        <time>2003-01-19T09:24:41Z</time>
      </trkpt>
      <trkpt lat="44.389915466308594" lon="11.193845272064209">
        <ele>490</ele>
        <time>2003-01-19T09:24:58Z</time>
      </trkpt>
      <trkpt lat="44.389894008636475" lon="11.19382381439209">
        <ele>490</ele>
        <time>2003-01-19T09:24:59Z</time>
      </trkpt>
      <trkpt lat="44.389464939013124" lon="11.193480491638184">
        <ele>492</ele>
        <time>2003-01-19T09:25:18Z</time>
      </trkpt>
      <trkpt lat="44.389014160260558" lon="11.193180084228516">
        <ele>494</ele>
        <time>2003-01-19T09:25:38Z</time>
      </trkpt>
      <trkpt lat="44.388778209686279" lon="11.192943966016173">
        <ele>497</ele>
        <time>2003-01-19T09:25:53Z</time>
      </trkpt>
      <trkpt lat="44.388585090637207" lon="11.193051338195801">
        <ele>496</ele>
        <time>2003-01-19T09:26:09Z</time>
      </trkpt>
      <trkpt lat="44.388241767883301" lon="11.193222999572754">
        <ele>496</ele>
        <time>2003-01-19T09:26:24Z</time>
      </trkpt>
      <trkpt lat="44.388134479522705" lon="11.193180084228516">
        <ele>494</ele>
        <time>2003-01-19T09:26:27Z</time>
      </trkpt>
      <trkpt lat="44.388070106506348" lon="11.193051338195801">
        <ele>492</ele>
        <time>2003-01-19T09:26:30Z</time>
      </trkpt>
      <trkpt lat="44.388048565015197" lon="11.193008422851563">
        <ele>492</ele>
        <time>2003-01-19T09:26:31Z</time>
      </trkpt>
      <trkpt lat="44.38800573348999" lon="11.192836761474609">
        <ele>491</ele>
        <time>2003-01-19T09:26:35Z</time>
      </trkpt>
      <trkpt lat="44.38826322555542" lon="11.192193031311035">
        <ele>489</ele>
        <time>2003-01-19T09:26:38Z</time>
      </trkpt>
      <trkpt lat="44.388198936358094" lon="11.192085659131408">
        <ele>488</ele>
        <time>2003-01-19T09:26:40Z</time>
      </trkpt>
      <trkpt lat="44.388177394866943" lon="11.192042827606201">
        <ele>487</ele>
        <time>2003-01-19T09:26:41Z</time>
      </trkpt>
      <trkpt lat="44.388134479522705" lon="11.191935539245605">
        <ele>485</ele>
        <time>2003-01-19T09:26:45Z</time>
      </trkpt>
      <trkpt lat="44.387404918670654" lon="11.191785335540771">
        <ele>481</ele>
        <time>2003-01-19T09:26:54Z</time>
      </trkpt>
      <trkpt lat="44.387061595916748" lon="11.191549301147461">
        <ele>478</ele>
        <time>2003-01-19T09:27:04Z</time>
      </trkpt>
      <trkpt lat="44.386954307556152" lon="11.191549301147461">
        <ele>476</ele>
        <time>2003-01-19T09:27:09Z</time>
      </trkpt>
      <trkpt lat="44.386847019195557" lon="11.190755367279053">
        <ele>475</ele>
        <time>2003-01-19T09:27:25Z</time>
      </trkpt>
      <trkpt lat="44.386718273162842" lon="11.190626621246338">
        <ele>473</ele>
        <time>2003-01-19T09:27:29Z</time>
      </trkpt>
      <trkpt lat="44.386546611785889" lon="11.190519332885742">
        <ele>470</ele>
        <time>2003-01-19T09:27:32Z</time>
      </trkpt>
      <trkpt lat="44.386482238769531" lon="11.190476417541504">
        <ele>469</ele>
        <time>2003-01-19T09:27:33Z</time>
      </trkpt>
      <trkpt lat="44.386310577392578" lon="11.190390586853027">
        <ele>465</ele>
        <time>2003-01-19T09:27:38Z</time>
      </trkpt>
      <trkpt lat="44.386310577392578" lon="11.190562164410949">
        <ele>462</ele>
        <time>2003-01-19T09:27:41Z</time>
      </trkpt>
      <trkpt lat="44.386375034227967" lon="11.190712535753846">
        <ele>460</ele>
        <time>2003-01-19T09:27:43Z</time>
      </trkpt>
      <trkpt lat="44.386460781097412" lon="11.19086273945868">
        <ele>456</ele>
        <time>2003-01-19T09:27:45Z</time>
      </trkpt>
      <trkpt lat="44.386482238769531" lon="11.190969860181212">
        <ele>453</ele>
        <time>2003-01-19T09:27:48Z</time>
      </trkpt>
      <trkpt lat="44.386332035064697" lon="11.190905570983887">
        <ele>450</ele>
        <time>2003-01-19T09:27:52Z</time>
      </trkpt>
      <trkpt lat="44.386181831359863" lon="11.190884113311768">
        <ele>448</ele>
        <time>2003-01-19T09:27:54Z</time>
      </trkpt>
      <trkpt lat="44.385988712310791" lon="11.190540790557861">
        <ele>443</ele>
        <time>2003-01-19T09:27:59Z</time>
      </trkpt>
      <trkpt lat="44.385967338457704" lon="11.190218925476074">
        <ele>441</ele>
        <time>2003-01-19T09:28:02Z</time>
      </trkpt>
      <trkpt lat="44.385902881622314" lon="11.190047264099121">
        <ele>440</ele>
        <time>2003-01-19T09:28:04Z</time>
      </trkpt>
      <trkpt lat="44.385838508605957" lon="11.189854061231017">
        <ele>439</ele>
        <time>2003-01-19T09:28:06Z</time>
      </trkpt>
      <trkpt lat="44.385838508605957" lon="11.189489364624023">
        <ele>438</ele>
        <time>2003-01-19T09:28:10Z</time>
      </trkpt>
      <trkpt lat="44.385945796966553" lon="11.189189041033387">
        <ele>432</ele>
        <time>2003-01-19T09:28:13Z</time>
      </trkpt>
      <trkpt lat="44.386074459180236" lon="11.188867092132568">
        <ele>427</ele>
        <time>2003-01-19T09:28:16Z</time>
      </trkpt>
      <trkpt lat="44.386160373687744" lon="11.188673973083496">
        <ele>423</ele>
        <time>2003-01-19T09:28:18Z</time>
      </trkpt>
      <trkpt lat="44.386203289031982" lon="11.188545227050781">
        <ele>422</ele>
        <time>2003-01-19T09:28:20Z</time>
      </trkpt>
      <trkpt lat="44.38601016998291" lon="11.188244819641113">
        <ele>423</ele>
        <time>2003-01-19T09:28:29Z</time>
      </trkpt>
      <trkpt lat="44.385924339294434" lon="11.187965869903564">
        <ele>423</ele>
        <time>2003-01-19T09:28:34Z</time>
      </trkpt>
      <trkpt lat="44.38581713475287" lon="11.187772834673524">
        <ele>422</ele>
        <time>2003-01-19T09:28:38Z</time>
      </trkpt>
      <trkpt lat="44.385902881622314" lon="11.187493801116943">
        <ele>419</ele>
        <time>2003-01-19T09:28:43Z</time>
      </trkpt>
      <trkpt lat="44.385924339294434" lon="11.187429428100586">
        <ele>418</ele>
        <time>2003-01-19T09:28:44Z</time>
      </trkpt>
      <trkpt lat="44.385988712310791" lon="11.187236309051514">
        <ele>416</ele>
        <time>2003-01-19T09:28:47Z</time>
      </trkpt>
      <trkpt lat="44.38601016998291" lon="11.186141967773438">
        <ele>416</ele>
        <time>2003-01-19T09:29:01Z</time>
      </trkpt>
      <trkpt lat="44.385859966278076" lon="11.186099136248231">
        <ele>417</ele>
        <time>2003-01-19T09:29:11Z</time>
      </trkpt>
      <trkpt lat="44.385859966278076" lon="11.186163425445557">
        <ele>419</ele>
        <time>2003-01-19T09:29:14Z</time>
      </trkpt>
      <trkpt lat="44.385838508605957" lon="11.186206340789795">
        <ele>419</ele>
        <time>2003-01-19T09:29:31Z</time>
      </trkpt>
      <trkpt lat="44.38575267791748" lon="11.186249339953065">
        <ele>422</ele>
        <time>2003-01-19T09:30:02Z</time>
      </trkpt>
      <trkpt lat="44.385731220245361" lon="11.186270713806152">
        <ele>423</ele>
        <time>2003-01-19T09:30:10Z</time>
      </trkpt>
      <trkpt lat="44.385731220245361" lon="11.186313629150391">
        <ele>424</ele>
        <time>2003-01-19T09:30:12Z</time>
      </trkpt>
      <trkpt lat="44.385495185852051" lon="11.186592578887939">
        <ele>427</ele>
        <time>2003-01-19T09:30:25Z</time>
      </trkpt>
      <trkpt lat="44.385280609130859" lon="11.186657035723329">
        <ele>430</ele>
        <time>2003-01-19T09:30:39Z</time>
      </trkpt>
      <trkpt lat="44.385044574737549" lon="11.186764240264893">
        <ele>434</ele>
        <time>2003-01-19T09:30:59Z</time>
      </trkpt>
      <trkpt lat="44.385044574737549" lon="11.186785697937012">
        <ele>435</ele>
        <time>2003-01-19T09:31:01Z</time>
      </trkpt>
      <trkpt lat="44.384851539507508" lon="11.187107563018799">
        <ele>438</ele>
        <time>2003-01-19T09:31:24Z</time>
      </trkpt>
      <trkpt lat="44.384658336639404" lon="11.187236309051514">
        <ele>441</ele>
        <time>2003-01-19T09:31:41Z</time>
      </trkpt>
      <trkpt lat="44.384593963623047" lon="11.187279224395752">
        <ele>443</ele>
        <time>2003-01-19T09:31:47Z</time>
      </trkpt>
      <trkpt lat="44.384529590606689" lon="11.187279224395752">
        <ele>444</ele>
        <time>2003-01-19T09:31:53Z</time>
      </trkpt>
      <trkpt lat="44.384443759918213" lon="11.18732213973999">
        <ele>442</ele>
        <time>2003-01-19T09:32:14Z</time>
      </trkpt>
      <trkpt lat="44.384379386901855" lon="11.187300682067871">
        <ele>444</ele>
        <time>2003-01-19T09:32:33Z</time>
      </trkpt>
      <trkpt lat="44.384357929229736" lon="11.187429428100586">
        <ele>440</ele>
        <time>2003-01-19T09:33:44Z</time>
      </trkpt>
      <trkpt lat="44.384357929229736" lon="11.187450885772705">
        <ele>436</ele>
        <time>2003-01-19T09:33:47Z</time>
      </trkpt>
      <trkpt lat="44.384379386901855" lon="11.187472259625793">
        <ele>432</ele>
        <time>2003-01-19T09:33:50Z</time>
      </trkpt>
      <trkpt lat="44.384379386901855" lon="11.187472259625793">
        <ele>431</ele>
        <time>2003-01-19T09:33:51Z</time>
      </trkpt>
      <trkpt lat="44.384400760754943" lon="11.187536716461182">
        <ele>429</ele>
        <time>2003-01-19T09:33:56Z</time>
      </trkpt>
      <trkpt lat="44.384379386901855" lon="11.187708377838135">
        <ele>429</ele>
        <time>2003-01-19T09:33:59Z</time>
      </trkpt>
      <trkpt lat="44.384336471557617" lon="11.188051700592041">
        <ele>425</ele>
        <time>2003-01-19T09:34:03Z</time>
      </trkpt>
      <trkpt lat="44.384293640032411" lon="11.188223361968994">
        <ele>423</ele>
        <time>2003-01-19T09:34:05Z</time>
      </trkpt>
      <trkpt lat="44.384315013885498" lon="11.189296161755919">
        <ele>422</ele>
        <time>2003-01-19T09:34:07Z</time>
      </trkpt>
      <trkpt lat="44.38377857208252" lon="11.189811229705811">
        <ele>420</ele>
        <time>2003-01-19T09:34:46Z</time>
      </trkpt>
      <trkpt lat="44.383628368377686" lon="11.190004264935851">
        <ele>421</ele>
        <time>2003-01-19T09:34:59Z</time>
      </trkpt>
      <trkpt lat="44.384100437164307" lon="11.190133094787598">
        <ele>422</ele>
        <time>2003-01-19T09:35:11Z</time>
      </trkpt>
      <trkpt lat="44.384229183197021" lon="11.190369129180908">
        <ele>417</ele>
        <time>2003-01-19T09:35:15Z</time>
      </trkpt>
      <trkpt lat="44.384250640869141" lon="11.190540790557861">
        <ele>414</ele>
        <time>2003-01-19T09:35:17Z</time>
      </trkpt>
      <trkpt lat="44.384229183197021" lon="11.190690994262695">
        <ele>411</ele>
        <time>2003-01-19T09:35:19Z</time>
      </trkpt>
      <trkpt lat="44.384336471557617" lon="11.190927028656006">
        <ele>406</ele>
        <time>2003-01-19T09:35:24Z</time>
      </trkpt>
      <trkpt lat="44.384357929229736" lon="11.19107723236084">
        <ele>402</ele>
        <time>2003-01-19T09:35:27Z</time>
      </trkpt>
      <trkpt lat="44.384400760754943" lon="11.191227436065674">
        <ele>398</ele>
        <time>2003-01-19T09:35:30Z</time>
      </trkpt>
      <trkpt lat="44.384443759918213" lon="11.191377639770508">
        <ele>394</ele>
        <time>2003-01-19T09:35:33Z</time>
      </trkpt>
      <trkpt lat="44.384443759918213" lon="11.191442012786865">
        <ele>393</ele>
        <time>2003-01-19T09:35:34Z</time>
      </trkpt>
      <trkpt lat="44.38450813293457" lon="11.191677963361144">
        <ele>387</ele>
        <time>2003-01-19T09:35:38Z</time>
      </trkpt>
      <trkpt lat="44.384529590606689" lon="11.191892623901367">
        <ele>384</ele>
        <time>2003-01-19T09:35:41Z</time>
      </trkpt>
      <trkpt lat="44.384572505950928" lon="11.192171573638916">
        <ele>380</ele>
        <time>2003-01-19T09:35:45Z</time>
      </trkpt>
      <trkpt lat="44.384593963623047" lon="11.192386234179139">
        <ele>378</ele>
        <time>2003-01-19T09:35:48Z</time>
      </trkpt>
      <trkpt lat="44.384615421295166" lon="11.192514896392822">
        <ele>377</ele>
        <time>2003-01-19T09:35:50Z</time>
      </trkpt>
      <trkpt lat="44.384636878967285" lon="11.19257926940918">
        <ele>375</ele>
        <time>2003-01-19T09:35:51Z</time>
      </trkpt>
      <trkpt lat="44.384744167327881" lon="11.19281530380249">
        <ele>371</ele>
        <time>2003-01-19T09:35:57Z</time>
      </trkpt>
      <trkpt lat="44.384787082672119" lon="11.192836761474609">
        <ele>370</ele>
        <time>2003-01-19T09:36:07Z</time>
      </trkpt>
      <trkpt lat="44.384744167327881" lon="11.192922592163086">
        <ele>370</ele>
        <time>2003-01-19T09:36:25Z</time>
      </trkpt>
      <trkpt lat="44.384722709655762" lon="11.193201541900635">
        <ele>368</ele>
        <time>2003-01-19T09:36:44Z</time>
      </trkpt>
      <trkpt lat="44.384615421295166" lon="11.193501865491271">
        <ele>369</ele>
        <time>2003-01-19T09:37:12Z</time>
      </trkpt>
      <trkpt lat="44.384465217590332" lon="11.194038391113281">
        <ele>371</ele>
        <time>2003-01-19T09:37:34Z</time>
      </trkpt>
      <trkpt lat="44.384422302246094" lon="11.194252967834473">
        <ele>373</ele>
        <time>2003-01-19T09:37:40Z</time>
      </trkpt>
      <trkpt lat="44.384315013885498" lon="11.194424629211426">
        <ele>376</ele>
        <time>2003-01-19T09:37:49Z</time>
      </trkpt>
      <trkpt lat="44.383864402770996" lon="11.194531917572021">
        <ele>379</ele>
        <time>2003-01-19T09:38:15Z</time>
      </trkpt>
      <trkpt lat="44.383842861279845" lon="11.194553375244141">
        <ele>379</ele>
        <time>2003-01-19T09:38:16Z</time>
      </trkpt>
      <trkpt lat="44.383649826049805" lon="11.19457483291626">
        <ele>376</ele>
        <time>2003-01-19T09:38:25Z</time>
      </trkpt>
      <trkpt lat="44.383585536852479" lon="11.194660663604736">
        <ele>375</ele>
        <time>2003-01-19T09:38:36Z</time>
      </trkpt>
      <trkpt lat="44.383478164672852" lon="11.194768035784364">
        <ele>375</ele>
        <time>2003-01-19T09:38:46Z</time>
      </trkpt>
      <trkpt lat="44.383156299591064" lon="11.195197105407715">
        <ele>376</ele>
        <time>2003-01-19T09:39:08Z</time>
      </trkpt>
      <trkpt lat="44.38300609588623" lon="11.195411682128906">
        <ele>373</ele>
        <time>2003-01-19T09:39:14Z</time>
      </trkpt>
      <trkpt lat="44.382920265197754" lon="11.19556188583374">
        <ele>372</ele>
        <time>2003-01-19T09:39:18Z</time>
      </trkpt>
      <trkpt lat="44.382576858624816" lon="11.196119785308838">
        <ele>373</ele>
        <time>2003-01-19T09:39:34Z</time>
      </trkpt>
      <trkpt lat="44.382469737902284" lon="11.196548938751221">
        <ele>374</ele>
        <time>2003-01-19T09:39:55Z</time>
      </trkpt>
      <trkpt lat="44.383413791656494" lon="11.196227073669434">
        <ele>376</ele>
        <time>2003-01-19T09:40:19Z</time>
      </trkpt>
      <trkpt lat="44.383542537689209" lon="11.19631290435791">
        <ele>377</ele>
        <time>2003-01-19T09:40:26Z</time>
      </trkpt>
      <trkpt lat="44.383885860443115" lon="11.196377277374268">
        <ele>381</ele>
        <time>2003-01-19T09:40:48Z</time>
      </trkpt>
      <trkpt lat="44.384250640869141" lon="11.196613311767578">
        <ele>384</ele>
        <time>2003-01-19T09:41:10Z</time>
      </trkpt>
      <trkpt lat="44.384422302246094" lon="11.196956634521484">
        <ele>385</ele>
        <time>2003-01-19T09:41:27Z</time>
      </trkpt>
      <trkpt lat="44.384529590606689" lon="11.19785794056952">
        <ele>387</ele>
        <time>2003-01-19T09:42:09Z</time>
      </trkpt>
      <trkpt lat="44.384486675262451" lon="11.198029518127441">
        <ele>390</ele>
        <time>2003-01-19T09:42:15Z</time>
      </trkpt>
      <trkpt lat="44.384315013885498" lon="11.198844909667969">
        <ele>394</ele>
        <time>2003-01-19T09:42:45Z</time>
      </trkpt>
      <trkpt lat="44.384529590606689" lon="11.199595928192139">
        <ele>397</ele>
        <time>2003-01-19T09:43:11Z</time>
      </trkpt>
      <trkpt lat="44.384100437164307" lon="11.200003623962402">
        <ele>396</ele>
        <time>2003-01-19T09:43:28Z</time>
      </trkpt>
      <trkpt lat="44.38401460647583" lon="11.200389862060547">
        <ele>398</ele>
        <time>2003-01-19T09:43:42Z</time>
      </trkpt>
      <trkpt lat="44.384078979492188" lon="11.200540065765381">
        <ele>398</ele>
        <time>2003-01-19T09:43:46Z</time>
      </trkpt>
      <trkpt lat="44.384143436327577" lon="11.200797641649842">
        <ele>396</ele>
        <time>2003-01-19T09:43:55Z</time>
      </trkpt>
      <trkpt lat="44.384078979492188" lon="11.200990676879883">
        <ele>395</ele>
        <time>2003-01-19T09:43:58Z</time>
      </trkpt>
      <trkpt lat="44.383993064984679" lon="11.201226711273193">
        <ele>394</ele>
        <time>2003-01-19T09:44:01Z</time>
      </trkpt>
      <trkpt lat="44.383864402770996" lon="11.201677322387695">
        <ele>391</ele>
        <time>2003-01-19T09:44:12Z</time>
      </trkpt>
      <trkpt lat="44.383842861279845" lon="11.201741695404053">
        <ele>391</ele>
        <time>2003-01-19T09:44:13Z</time>
      </trkpt>
      <trkpt lat="44.383821487426758" lon="11.201827526092529">
        <ele>389</ele>
        <time>2003-01-19T09:44:15Z</time>
      </trkpt>
      <trkpt lat="44.383800029754639" lon="11.201977729797363">
        <ele>386</ele>
        <time>2003-01-19T09:44:18Z</time>
      </trkpt>
      <trkpt lat="44.3837571144104" lon="11.202149391174316">
        <ele>383</ele>
        <time>2003-01-19T09:44:21Z</time>
      </trkpt>
      <trkpt lat="44.383735740557313" lon="11.202256679534912">
        <ele>381</ele>
        <time>2003-01-19T09:44:23Z</time>
      </trkpt>
      <trkpt lat="44.383585536852479" lon="11.202750205993652">
        <ele>376</ele>
        <time>2003-01-19T09:44:32Z</time>
      </trkpt>
      <trkpt lat="44.383499622344971" lon="11.203007698059082">
        <ele>373</ele>
        <time>2003-01-19T09:44:37Z</time>
      </trkpt>
      <trkpt lat="44.383456707000732" lon="11.203114986419678">
        <ele>372</ele>
        <time>2003-01-19T09:44:39Z</time>
      </trkpt>
      <trkpt lat="44.383413791656494" lon="11.203501224517822">
        <ele>368</ele>
        <time>2003-01-19T09:44:52Z</time>
      </trkpt>
      <trkpt lat="44.383306503295898" lon="11.20425215922296">
        <ele>366</ele>
        <time>2003-01-19T09:45:10Z</time>
      </trkpt>
      <trkpt lat="44.383199214935303" lon="11.204531192779541">
        <ele>368</ele>
        <time>2003-01-19T10:02:42Z</time>
      </trkpt>
      <trkpt lat="44.383091926574707" lon="11.20485314168036">
        <ele>368</ele>
        <time>2003-01-19T10:02:25Z</time>
      </trkpt>
      <trkpt lat="44.383049011230469" lon="11.204917430877686">
        <ele>367</ele>
        <time>2003-01-19T10:02:21Z</time>
      </trkpt>
      <trkpt lat="44.382791519165039" lon="11.205132007598877">
        <ele>368</ele>
        <time>2003-01-19T10:02:07Z</time>
      </trkpt>
      <trkpt lat="44.382491111755371" lon="11.205367958173156">
        <ele>365</ele>
        <time>2003-01-19T10:01:53Z</time>
      </trkpt>
      <trkpt lat="44.38251256942749" lon="11.205883026123047">
        <ele>365</ele>
        <time>2003-01-19T10:01:37Z</time>
      </trkpt>
      <trkpt lat="44.382212162017822" lon="11.206140518188477">
        <ele>367</ele>
        <time>2003-01-19T10:01:23Z</time>
      </trkpt>
      <trkpt lat="44.381740093231201" lon="11.206569671630859">
        <ele>368</ele>
        <time>2003-01-19T10:01:03Z</time>
      </trkpt>
      <trkpt lat="44.381482601165771" lon="11.206784164533019">
        <ele>369</ele>
        <time>2003-01-19T10:00:50Z</time>
      </trkpt>
      <trkpt lat="44.38103199005127" lon="11.206655502319336">
        <ele>372</ele>
        <time>2003-01-19T10:00:34Z</time>
      </trkpt>
      <trkpt lat="44.380946159362793" lon="11.206633960828185">
        <ele>372</ele>
        <time>2003-01-19T10:00:29Z</time>
      </trkpt>
      <trkpt lat="44.380903160199523" lon="11.206655502319336">
        <ele>370</ele>
        <time>2003-01-19T10:12:15Z</time>
      </trkpt>
      <trkpt lat="44.380838871002197" lon="11.206483840942383">
        <ele>372</ele>
        <time>2003-01-19T10:11:59Z</time>
      </trkpt>
      <trkpt lat="44.380753040313721" lon="11.206290721893311">
        <ele>374</ele>
        <time>2003-01-19T10:13:05Z</time>
      </trkpt>
      <trkpt lat="44.380710124969482" lon="11.206204891204834">
        <ele>375</ele>
        <time>2003-01-19T10:13:15Z</time>
      </trkpt>
      <trkpt lat="44.380688667297363" lon="11.206011772155762">
        <ele>377</ele>
        <time>2003-01-19T10:19:59Z</time>
      </trkpt>
      <trkpt lat="44.380688667297363" lon="11.205883026123047">
        <ele>378</ele>
        <time>2003-01-19T10:20:10Z</time>
      </trkpt>
      <trkpt lat="44.380688667297363" lon="11.205861568450928">
        <ele>379</ele>
        <time>2003-01-19T10:20:14Z</time>
      </trkpt>
      <trkpt lat="44.380667209625244" lon="11.205539703369141">
        <ele>382</ele>
        <time>2003-01-19T10:20:30Z</time>
      </trkpt>
      <trkpt lat="44.380667209625244" lon="11.20551816187799">
        <ele>382</ele>
        <time>2003-01-19T10:20:31Z</time>
      </trkpt>
      <trkpt lat="44.380538463592529" lon="11.205367958173156">
        <ele>386</ele>
        <time>2003-01-19T10:20:41Z</time>
      </trkpt>
      <trkpt lat="44.380109310150146" lon="11.205217838287354">
        <ele>388</ele>
        <time>2003-01-19T10:21:01Z</time>
      </trkpt>
      <trkpt lat="44.379658699035645" lon="11.205196380615234">
        <ele>390</ele>
        <time>2003-01-19T10:21:19Z</time>
      </trkpt>
      <trkpt lat="44.379487037658691" lon="11.205132007598877">
        <ele>394</ele>
        <time>2003-01-19T10:21:28Z</time>
      </trkpt>
      <trkpt lat="44.379315376281738" lon="11.2050461769104">
        <ele>396</ele>
        <time>2003-01-19T10:21:41Z</time>
      </trkpt>
      <trkpt lat="44.379143714904785" lon="11.20506763458252">
        <ele>400</ele>
        <time>2003-01-19T10:21:54Z</time>
      </trkpt>
      <trkpt lat="44.379036426544189" lon="11.205174922943115">
        <ele>390</ele>
        <time>2004-12-08T09:03:05Z</time>
      </trkpt>
      <trkpt lat="44.378950595855713" lon="11.205367958173156">
        <ele>393</ele>
        <time>2004-12-08T09:03:22Z</time>
      </trkpt>
      <trkpt lat="44.378886222839355" lon="11.205453872680664">
        <ele>395</ele>
        <time>2004-12-08T09:03:32Z</time>
      </trkpt>
      <trkpt lat="44.378843307495117" lon="11.205432415008545">
        <ele>396</ele>
        <time>2004-12-08T09:03:38Z</time>
      </trkpt>
      <trkpt lat="44.378800392150879" lon="11.205153465270996">
        <ele>399</ele>
        <time>2004-12-08T09:03:56Z</time>
      </trkpt>
      <trkpt lat="44.378800392150879" lon="11.20506763458252">
        <ele>400</ele>
        <time>2004-12-08T09:04:02Z</time>
      </trkpt>
      <trkpt lat="44.378821766003966" lon="11.20485314168036">
        <ele>403</ele>
        <time>2004-12-08T09:04:19Z</time>
      </trkpt>
      <trkpt lat="44.378821766003966" lon="11.204831600189209">
        <ele>403</ele>
        <time>2004-12-08T09:04:20Z</time>
      </trkpt>
      <trkpt lat="44.378757476806641" lon="11.204638481140137">
        <ele>405</ele>
        <time>2004-12-08T09:04:37Z</time>
      </trkpt>
      <trkpt lat="44.378693103790283" lon="11.204509735107422">
        <ele>408</ele>
        <time>2004-12-08T09:04:49Z</time>
      </trkpt>
      <trkpt lat="44.378671562299132" lon="11.204445362091064">
        <ele>409</ele>
        <time>2004-12-08T09:04:55Z</time>
      </trkpt>
      <trkpt lat="44.378693103790283" lon="11.204230785369873">
        <ele>412</ele>
        <time>2004-12-08T09:05:12Z</time>
      </trkpt>
      <trkpt lat="44.378714561462402" lon="11.20405912399292">
        <ele>415</ele>
        <time>2004-12-08T09:05:25Z</time>
      </trkpt>
      <trkpt lat="44.378714561462402" lon="11.203780174255371">
        <ele>419</ele>
        <time>2004-12-08T09:05:48Z</time>
      </trkpt>
      <trkpt lat="44.378714561462402" lon="11.203758716583252">
        <ele>419</ele>
        <time>2004-12-08T09:05:49Z</time>
      </trkpt>
      <trkpt lat="44.378671562299132" lon="11.203651428222656">
        <ele>421</ele>
        <time>2004-12-08T09:05:59Z</time>
      </trkpt>
      <trkpt lat="44.378478527069092" lon="11.203501224517822">
        <ele>425</ele>
        <time>2004-12-08T09:06:20Z</time>
      </trkpt>
      <trkpt lat="44.378371238708496" lon="11.203372478485107">
        <ele>427</ele>
        <time>2004-12-08T09:06:32Z</time>
      </trkpt>
      <trkpt lat="44.378264034166932" lon="11.203243732452393">
        <ele>430</ele>
        <time>2004-12-08T09:06:45Z</time>
      </trkpt>
      <trkpt lat="44.378178119659424" lon="11.202943325042725">
        <ele>434</ele>
        <time>2004-12-08T09:07:03Z</time>
      </trkpt>
      <trkpt lat="44.378135204315186" lon="11.202750205993652">
        <ele>437</ele>
        <time>2004-12-08T09:07:14Z</time>
      </trkpt>
      <trkpt lat="44.378092288970947" lon="11.202664375305176">
        <ele>438</ele>
        <time>2004-12-08T09:07:21Z</time>
      </trkpt>
      <trkpt lat="44.378049373626709" lon="11.202621459960938">
        <ele>438</ele>
        <time>2004-12-08T09:07:25Z</time>
      </trkpt>
      <trkpt lat="44.377834796905518" lon="11.202707290649414">
        <ele>441</ele>
        <time>2004-12-08T09:07:41Z</time>
      </trkpt>
      <trkpt lat="44.377620220184326" lon="11.202750205993652">
        <ele>443</ele>
        <time>2004-12-08T09:07:59Z</time>
      </trkpt>
      <trkpt lat="44.377577304840088" lon="11.202664375305176">
        <ele>444</ele>
        <time>2004-12-08T09:08:06Z</time>
      </trkpt>
      <trkpt lat="44.377405559644103" lon="11.202471340075135">
        <ele>454</ele>
        <time>2003-01-19T10:30:21Z</time>
      </trkpt>
      <trkpt lat="44.377233982086182" lon="11.202342510223389">
        <ele>455</ele>
        <time>2003-01-19T10:30:37Z</time>
      </trkpt>
      <trkpt lat="44.376997863873839" lon="11.202321136370301">
        <ele>456</ele>
        <time>2003-01-19T10:30:55Z</time>
      </trkpt>
      <trkpt lat="44.376654624938965" lon="11.202621459960938">
        <ele>455</ele>
        <time>2003-01-19T10:31:18Z</time>
      </trkpt>
      <trkpt lat="44.376375675201416" lon="11.203200817108154">
        <ele>454</ele>
        <time>2003-01-19T10:31:32Z</time>
      </trkpt>
      <trkpt lat="44.376311302185059" lon="11.203265190124512">
        <ele>454</ele>
        <time>2003-01-19T10:31:37Z</time>
      </trkpt>
      <trkpt lat="44.376246929168701" lon="11.203179359436035">
        <ele>453</ele>
        <time>2003-01-19T10:31:45Z</time>
      </trkpt>
      <trkpt lat="44.376182639971375" lon="11.202750205993652">
        <ele>455</ele>
        <time>2003-01-19T10:32:04Z</time>
      </trkpt>
      <trkpt lat="44.376139640808105" lon="11.202192306518555">
        <ele>453</ele>
        <time>2003-01-19T10:32:20Z</time>
      </trkpt>
      <trkpt lat="44.376139640808105" lon="11.202042102813721">
        <ele>452</ele>
        <time>2003-01-19T10:32:22Z</time>
      </trkpt>
      <trkpt lat="44.376096725463867" lon="11.2015700340271">
        <ele>449</ele>
        <time>2003-01-19T10:32:27Z</time>
      </trkpt>
      <trkpt lat="44.375989437103271" lon="11.201398372650146">
        <ele>447</ele>
        <time>2003-01-19T10:32:30Z</time>
      </trkpt>
      <trkpt lat="44.375796318054199" lon="11.201398372650146">
        <ele>445</ele>
        <time>2003-01-19T10:32:33Z</time>
      </trkpt>
      <trkpt lat="44.37553882598877" lon="11.20135554112494">
        <ele>444</ele>
        <time>2003-01-19T10:32:37Z</time>
      </trkpt>
      <trkpt lat="44.375131130218506" lon="11.201441287994385">
        <ele>440</ele>
        <time>2003-01-19T10:32:43Z</time>
      </trkpt>
      <trkpt lat="44.374573230743408" lon="11.201784610748291">
        <ele>438</ele>
        <time>2003-01-19T10:32:53Z</time>
      </trkpt>
      <trkpt lat="44.374508941546082" lon="11.201827526092529">
        <ele>436</ele>
        <time>2003-01-19T10:32:54Z</time>
      </trkpt>
      <trkpt lat="44.374251365661621" lon="11.201741695404053">
        <ele>432</ele>
        <time>2003-01-19T10:32:59Z</time>
      </trkpt>
      <trkpt lat="44.374144077301025" lon="11.201591491699219">
        <ele>432</ele>
        <time>2003-01-19T10:33:01Z</time>
      </trkpt>
      <trkpt lat="44.373972415924072" lon="11.201226711273193">
        <ele>430</ele>
        <time>2003-01-19T10:33:05Z</time>
      </trkpt>
      <trkpt lat="44.373865127563477" lon="11.200840473175049">
        <ele>427</ele>
        <time>2003-01-19T10:33:09Z</time>
      </trkpt>
      <trkpt lat="44.373607635498047" lon="11.20030403137207">
        <ele>423</ele>
        <time>2003-01-19T10:33:15Z</time>
      </trkpt>
      <trkpt lat="44.373543262481689" lon="11.200132369995117">
        <ele>420</ele>
        <time>2003-01-19T10:33:17Z</time>
      </trkpt>
      <trkpt lat="44.373607635498047" lon="11.199831962585449">
        <ele>417</ele>
        <time>2003-01-19T10:33:21Z</time>
      </trkpt>
      <trkpt lat="44.373736381530762" lon="11.199724674224854">
        <ele>415</ele>
        <time>2003-01-19T10:33:23Z</time>
      </trkpt>
      <trkpt lat="44.373865127563477" lon="11.199510097503662">
        <ele>413</ele>
        <time>2003-01-19T10:33:28Z</time>
      </trkpt>
      <trkpt lat="44.373822212219238" lon="11.199445724487305">
        <ele>413</ele>
        <time>2003-01-19T10:33:30Z</time>
      </trkpt>
      <trkpt lat="44.373478889465332" lon="11.199295520782471">
        <ele>414</ele>
        <time>2003-01-19T10:33:38Z</time>
      </trkpt>
      <trkpt lat="44.373478889465332" lon="11.199080860242248">
        <ele>414</ele>
        <time>2003-01-19T10:33:42Z</time>
      </trkpt>
      <trkpt lat="44.373629093170166" lon="11.198608875274658">
        <ele>410</ele>
        <time>2003-01-19T10:33:48Z</time>
      </trkpt>
      <trkpt lat="44.373650634661317" lon="11.198544502258301">
        <ele>409</ele>
        <time>2003-01-19T10:33:50Z</time>
      </trkpt>
      <trkpt lat="44.373650634661317" lon="11.198544502258301">
        <ele>408</ele>
        <time>2003-01-19T10:33:51Z</time>
      </trkpt>
      <trkpt lat="44.373607635498047" lon="11.19856595993042">
        <ele>408</ele>
        <time>2003-01-19T10:33:56Z</time>
      </trkpt>
      <trkpt lat="44.373586177825928" lon="11.198608875274658">
        <ele>405</ele>
        <time>2003-01-19T10:34:11Z</time>
      </trkpt>
      <trkpt lat="44.373586177825928" lon="11.198630332946777">
        <ele>406</ele>
        <time>2003-01-19T10:34:39Z</time>
      </trkpt>
      <trkpt lat="44.373586177825928" lon="11.198630332946777">
        <ele>406</ele>
        <time>2003-01-19T10:34:42Z</time>
      </trkpt>
      <trkpt lat="44.373500263318419" lon="11.198759078979492">
        <ele>405</ele>
        <time>2003-01-19T10:34:47Z</time>
      </trkpt>
      <trkpt lat="44.37328577041626" lon="11.198930740356445">
        <ele>401</ele>
        <time>2003-01-19T10:34:51Z</time>
      </trkpt>
      <trkpt lat="44.373135566711426" lon="11.199123859405518">
        <ele>396</ele>
        <time>2003-01-19T10:34:55Z</time>
      </trkpt>
      <trkpt lat="44.373092735186219" lon="11.199188232421875">
        <ele>394</ele>
        <time>2003-01-19T10:34:56Z</time>
      </trkpt>
      <trkpt lat="44.372963905334473" lon="11.199338436126709">
        <ele>389</ele>
        <time>2003-01-19T10:34:59Z</time>
      </trkpt>
      <trkpt lat="44.372856616973877" lon="11.199445724487305">
        <ele>386</ele>
        <time>2003-01-19T10:35:01Z</time>
      </trkpt>
      <trkpt lat="44.372835159301758" lon="11.199510097503662">
        <ele>386</ele>
        <time>2003-01-19T10:35:02Z</time>
      </trkpt>
      <trkpt lat="44.372534835711122" lon="11.199853420257568">
        <ele>386</ele>
        <time>2003-01-19T10:35:14Z</time>
      </trkpt>
      <trkpt lat="44.372448921203613" lon="11.199939334765077">
        <ele>386</ele>
        <time>2003-01-19T10:35:20Z</time>
      </trkpt>
      <trkpt lat="44.372320175170898" lon="11.200432777404785">
        <ele>385</ele>
        <time>2003-01-19T10:35:32Z</time>
      </trkpt>
      <trkpt lat="44.372298717498779" lon="11.200475692749023">
        <ele>386</ele>
        <time>2003-01-19T10:35:33Z</time>
      </trkpt>
      <trkpt lat="44.37201976776123" lon="11.200754558667541">
        <ele>386</ele>
        <time>2003-01-19T10:35:48Z</time>
      </trkpt>
      <trkpt lat="44.37201976776123" lon="11.201248168945313">
        <ele>385</ele>
        <time>2003-01-19T10:35:59Z</time>
      </trkpt>
      <trkpt lat="44.371976936236024" lon="11.201848983764648">
        <ele>386</ele>
        <time>2003-01-19T10:36:13Z</time>
      </trkpt>
      <trkpt lat="44.371891021728516" lon="11.202342510223389">
        <ele>389</ele>
        <time>2003-01-19T10:36:28Z</time>
      </trkpt>
      <trkpt lat="44.371762275695801" lon="11.202836036682129">
        <ele>390</ele>
        <time>2003-01-19T10:36:43Z</time>
      </trkpt>
      <trkpt lat="44.371697902679443" lon="11.203715801239014">
        <ele>388</ele>
        <time>2003-01-19T10:36:59Z</time>
      </trkpt>
      <trkpt lat="44.371740818023682" lon="11.204016208648682">
        <ele>386</ele>
        <time>2003-01-19T10:37:03Z</time>
      </trkpt>
      <trkpt lat="44.371740818023682" lon="11.204123497009277">
        <ele>385</ele>
        <time>2003-01-19T10:37:04Z</time>
      </trkpt>
      <trkpt lat="44.371740818023682" lon="11.20429515838623">
        <ele>384</ele>
        <time>2003-01-19T10:37:06Z</time>
      </trkpt>
      <trkpt lat="44.37178373336792" lon="11.204574108123779">
        <ele>379</ele>
        <time>2003-01-19T10:37:09Z</time>
      </trkpt>
      <trkpt lat="44.371826564893126" lon="11.204659938812256">
        <ele>376</ele>
        <time>2003-01-19T10:37:10Z</time>
      </trkpt>
      <trkpt lat="44.371869564056396" lon="11.204810058698058">
        <ele>372</ele>
        <time>2003-01-19T10:37:12Z</time>
      </trkpt>
      <trkpt lat="44.371912479400635" lon="11.205196380615234">
        <ele>368</ele>
        <time>2003-01-19T10:37:17Z</time>
      </trkpt>
      <trkpt lat="44.371869564056396" lon="11.205389499664307">
        <ele>364</ele>
        <time>2003-01-19T10:37:20Z</time>
      </trkpt>
      <trkpt lat="44.371805191040039" lon="11.205582618713379">
        <ele>361</ele>
        <time>2003-01-19T10:37:23Z</time>
      </trkpt>
      <trkpt lat="44.371762275695801" lon="11.206011772155762">
        <ele>357</ele>
        <time>2003-01-19T10:37:28Z</time>
      </trkpt>
      <trkpt lat="44.371676361188293" lon="11.206247806549072">
        <ele>352</ele>
        <time>2003-01-19T10:37:31Z</time>
      </trkpt>
      <trkpt lat="44.371590614318848" lon="11.206483840942383">
        <ele>350</ele>
        <time>2003-01-19T10:37:34Z</time>
      </trkpt>
      <trkpt lat="44.371504783630371" lon="11.206698417663574">
        <ele>348</ele>
        <time>2003-01-19T10:37:37Z</time>
      </trkpt>
      <trkpt lat="44.371483325958252" lon="11.206784164533019">
        <ele>345</ele>
        <time>2003-01-19T10:37:38Z</time>
      </trkpt>
      <trkpt lat="44.371333122253418" lon="11.207149028778076">
        <ele>342</ele>
        <time>2003-01-19T10:37:43Z</time>
      </trkpt>
      <trkpt lat="44.37129020690918" lon="11.207320690155029">
        <ele>340</ele>
        <time>2003-01-19T10:37:45Z</time>
      </trkpt>
      <trkpt lat="44.371204376220703" lon="11.20755672454834">
        <ele>338</ele>
        <time>2003-01-19T10:37:48Z</time>
      </trkpt>
      <trkpt lat="44.371075630187988" lon="11.207664012908936">
        <ele>333</ele>
        <time>2003-01-19T10:37:51Z</time>
      </trkpt>
      <trkpt lat="44.370989799499512" lon="11.207706928253174">
        <ele>331</ele>
        <time>2003-01-19T10:37:53Z</time>
      </trkpt>
      <trkpt lat="44.370946884155273" lon="11.207985877990723">
        <ele>326</ele>
        <time>2003-01-19T10:37:57Z</time>
      </trkpt>
      <trkpt lat="44.370818138122559" lon="11.208200538530946">
        <ele>321</ele>
        <time>2003-01-19T10:38:01Z</time>
      </trkpt>
      <trkpt lat="44.370689392089844" lon="11.208200538530946">
        <ele>317</ele>
        <time>2003-01-19T10:38:04Z</time>
      </trkpt>
      <trkpt lat="44.370496273040771" lon="11.208157539367676">
        <ele>314</ele>
        <time>2003-01-19T10:38:07Z</time>
      </trkpt>
      <trkpt lat="44.370324611663818" lon="11.207899963483214">
        <ele>309</ele>
        <time>2003-01-19T10:38:11Z</time>
      </trkpt>
      <trkpt lat="44.37028169631958" lon="11.207835674285889">
        <ele>307</ele>
        <time>2003-01-19T10:38:12Z</time>
      </trkpt>
      <trkpt lat="44.370217323303223" lon="11.207685470581055">
        <ele>303</ele>
        <time>2003-01-19T10:38:14Z</time>
      </trkpt>
      <trkpt lat="44.370195865631104" lon="11.207513809204102">
        <ele>301</ele>
        <time>2003-01-19T10:38:16Z</time>
      </trkpt>
      <trkpt lat="44.370002662763" lon="11.207277774810791">
        <ele>295</ele>
        <time>2003-01-19T10:38:20Z</time>
      </trkpt>
      <trkpt lat="44.369895458221436" lon="11.207170486450195">
        <ele>290</ele>
        <time>2003-01-19T10:38:22Z</time>
      </trkpt>
      <trkpt lat="44.369831085205078" lon="11.207127571105957">
        <ele>289</ele>
        <time>2003-01-19T10:38:23Z</time>
      </trkpt>
      <trkpt lat="44.369680881500244" lon="11.206977367401123">
        <ele>282</ele>
        <time>2003-01-19T10:38:26Z</time>
      </trkpt>
      <trkpt lat="44.369595134630799" lon="11.206848621368408">
        <ele>279</ele>
        <time>2003-01-19T10:38:28Z</time>
      </trkpt>
      <trkpt lat="44.36953067779541" lon="11.206762790679932">
        <ele>276</ele>
        <time>2003-01-19T10:38:30Z</time>
      </trkpt>
      <trkpt lat="44.369487762451172" lon="11.206741333007813">
        <ele>275</ele>
        <time>2003-01-19T10:38:31Z</time>
      </trkpt>
      <trkpt lat="44.369423389434814" lon="11.206784164533019">
        <ele>272</ele>
        <time>2003-01-19T10:38:39Z</time>
      </trkpt>
      <trkpt lat="44.369401931762695" lon="11.206762790679932">
        <ele>272</ele>
        <time>2003-01-19T10:39:08Z</time>
      </trkpt>
      <trkpt lat="44.369380474090576" lon="11.206827163696289">
        <ele>272</ele>
        <time>2003-01-19T10:44:16Z</time>
      </trkpt>
      <trkpt lat="44.369316101074219" lon="11.207256317138672">
        <ele>271</ele>
        <time>2003-01-19T10:44:26Z</time>
      </trkpt>
      <trkpt lat="44.369316101074219" lon="11.207320690155029">
        <ele>270</ele>
        <time>2003-01-19T10:44:27Z</time>
      </trkpt>
      <trkpt lat="44.369337558746338" lon="11.207535266876221">
        <ele>269</ele>
        <time>2003-01-19T10:44:30Z</time>
      </trkpt>
      <trkpt lat="44.36927318572998" lon="11.20781421661377">
        <ele>267</ele>
        <time>2003-01-19T10:44:34Z</time>
      </trkpt>
      <trkpt lat="44.369165897369385" lon="11.208071708679199">
        <ele>262</ele>
        <time>2003-01-19T10:44:38Z</time>
      </trkpt>
      <trkpt lat="44.369144439697266" lon="11.208114624023438">
        <ele>262</ele>
        <time>2003-01-19T10:44:39Z</time>
      </trkpt>
      <trkpt lat="44.369144439697266" lon="11.208243370056152">
        <ele>261</ele>
        <time>2003-01-19T10:44:41Z</time>
      </trkpt>
      <trkpt lat="44.36927318572998" lon="11.208393573760986">
        <ele>259</ele>
        <time>2003-01-19T10:44:44Z</time>
      </trkpt>
      <trkpt lat="44.369444763287902" lon="11.20854377746582">
        <ele>256</ele>
        <time>2003-01-19T10:44:47Z</time>
      </trkpt>
      <trkpt lat="44.369595134630799" lon="11.208736896514893">
        <ele>254</ele>
        <time>2003-01-19T10:44:50Z</time>
      </trkpt>
      <trkpt lat="44.36978816986084" lon="11.209187507629395">
        <ele>249</ele>
        <time>2003-01-19T10:44:55Z</time>
      </trkpt>
      <trkpt lat="44.369852459058166" lon="11.209337711334229">
        <ele>246</ele>
        <time>2003-01-19T10:44:57Z</time>
      </trkpt>
      <trkpt lat="44.369852459058166" lon="11.209380626678467">
        <ele>245</ele>
        <time>2003-01-19T10:44:58Z</time>
      </trkpt>
      <trkpt lat="44.36978816986084" lon="11.209573661908507">
        <ele>242</ele>
        <time>2003-01-19T10:45:03Z</time>
      </trkpt>
      <trkpt lat="44.369616508483887" lon="11.209681034088135">
        <ele>237</ele>
        <time>2003-01-19T10:45:07Z</time>
      </trkpt>
      <trkpt lat="44.369423389434814" lon="11.20980978012085">
        <ele>233</ele>
        <time>2003-01-19T10:45:10Z</time>
      </trkpt>
      <trkpt lat="44.369380474090576" lon="11.209852695465088">
        <ele>230</ele>
        <time>2003-01-19T10:45:11Z</time>
      </trkpt>
      <trkpt lat="44.369294559583068" lon="11.209959983825684">
        <ele>228</ele>
        <time>2003-01-19T10:45:13Z</time>
      </trkpt>
      <trkpt lat="44.369230270385742" lon="11.210110187530518">
        <ele>225</ele>
        <time>2003-01-19T10:45:16Z</time>
      </trkpt>
      <trkpt lat="44.369187438860536" lon="11.210281765088439">
        <ele>221</ele>
        <time>2003-01-19T10:45:19Z</time>
      </trkpt>
      <trkpt lat="44.369101524353027" lon="11.210517883300781">
        <ele>216</ele>
        <time>2003-01-19T10:45:23Z</time>
      </trkpt>
      <trkpt lat="44.369080066680908" lon="11.21058234013617">
        <ele>215</ele>
        <time>2003-01-19T10:45:24Z</time>
      </trkpt>
      <trkpt lat="44.368972778320313" lon="11.210753917694092">
        <ele>211</ele>
        <time>2003-01-19T10:45:27Z</time>
      </trkpt>
      <trkpt lat="44.368865489959717" lon="11.21079683303833">
        <ele>209</ele>
        <time>2003-01-19T10:45:30Z</time>
      </trkpt>
      <trkpt lat="44.368607997894287" lon="11.210818290710449">
        <ele>204</ele>
        <time>2003-01-19T10:45:35Z</time>
      </trkpt>
      <trkpt lat="44.368479335680604" lon="11.210818290710449">
        <ele>202</ele>
        <time>2003-01-19T10:45:39Z</time>
      </trkpt>
      <trkpt lat="44.368393421173096" lon="11.210839664563537">
        <ele>201</ele>
        <time>2003-01-19T10:45:42Z</time>
      </trkpt>
      <trkpt lat="44.368414878845215" lon="11.210925579071045">
        <ele>199</ele>
        <time>2003-01-19T10:45:47Z</time>
      </trkpt>
      <trkpt lat="44.368801116943359" lon="11.211419105529785">
        <ele>196</ele>
        <time>2003-01-19T10:45:58Z</time>
      </trkpt>
      <trkpt lat="44.369380474090576" lon="11.212127208709717">
        <ele>193</ele>
        <time>2003-01-19T10:46:10Z</time>
      </trkpt>
      <trkpt lat="44.369723796844482" lon="11.21251336298883">
        <ele>194</ele>
        <time>2003-01-19T10:46:23Z</time>
      </trkpt>
      <trkpt lat="44.37002420425415" lon="11.213028430938721">
        <ele>193</ele>
        <time>2003-01-19T10:46:38Z</time>
      </trkpt>
      <trkpt lat="44.370110034942627" lon="11.213135719299316">
        <ele>192</ele>
        <time>2003-01-19T10:47:01Z</time>
      </trkpt>
      <trkpt lat="44.369981288909912" lon="11.213221466168761">
        <ele>189</ele>
        <time>2003-01-19T10:47:07Z</time>
      </trkpt>
      <trkpt lat="44.370002662763" lon="11.21328592300415">
        <ele>187</ele>
        <time>2003-01-19T10:47:10Z</time>
      </trkpt>
      <trkpt lat="44.370002662763" lon="11.21330738067627">
        <ele>186</ele>
        <time>2003-01-19T10:47:11Z</time>
      </trkpt>
      <trkpt lat="44.37004566192627" lon="11.213457584381104">
        <ele>183</ele>
        <time>2003-01-19T10:47:16Z</time>
      </trkpt>
      <trkpt lat="44.37004566192627" lon="11.213586330413818">
        <ele>180</ele>
        <time>2003-01-19T10:47:22Z</time>
      </trkpt>
      <trkpt lat="44.37004566192627" lon="11.213650703430176">
        <ele>178</ele>
        <time>2003-01-19T10:47:26Z</time>
      </trkpt>
      <trkpt lat="44.37004566192627" lon="11.213693618774414">
        <ele>177</ele>
        <time>2003-01-19T10:47:30Z</time>
      </trkpt>
      <trkpt lat="44.37004566192627" lon="11.213736534118652">
        <ele>174</ele>
        <time>2003-01-19T10:47:35Z</time>
      </trkpt>
      <trkpt lat="44.370002662763" lon="11.213757991790771">
        <ele>172</ele>
        <time>2003-01-19T10:47:43Z</time>
      </trkpt>
      <trkpt lat="44.369895458221436" lon="11.213886737823486">
        <ele>171</ele>
        <time>2003-01-19T10:47:49Z</time>
      </trkpt>
      <trkpt lat="44.369959831237793" lon="11.21403694152832">
        <ele>168</ele>
        <time>2003-01-19T10:47:52Z</time>
      </trkpt>
      <trkpt lat="44.37002420425415" lon="11.214208602905273">
        <ele>165</ele>
        <time>2003-01-19T10:47:55Z</time>
      </trkpt>
      <trkpt lat="44.37004566192627" lon="11.214251518249512">
        <ele>165</ele>
        <time>2003-01-19T10:47:56Z</time>
      </trkpt>
      <trkpt lat="44.370303237810731" lon="11.214852333068848">
        <ele>163</ele>
        <time>2003-01-19T10:48:13Z</time>
      </trkpt>
      <trkpt lat="44.370303237810731" lon="11.214852333068848">
        <ele>164</ele>
        <time>2003-01-19T10:48:26Z</time>
      </trkpt>
      <trkpt lat="44.370303237810731" lon="11.214873790740967">
        <ele>164</ele>
        <time>2003-01-19T10:49:36Z</time>
      </trkpt>
      <trkpt lat="44.37028169631958" lon="11.215260028839111">
        <ele>160</ele>
        <time>2003-01-19T10:49:42Z</time>
      </trkpt>
      <trkpt lat="44.37028169631958" lon="11.215410232543945">
        <ele>158</ele>
        <time>2003-01-19T10:49:44Z</time>
      </trkpt>
      <trkpt lat="44.370324611663818" lon="11.215753639116883">
        <ele>153</ele>
        <time>2003-01-19T10:49:48Z</time>
      </trkpt>
      <trkpt lat="44.370388984680176" lon="11.21601096354425">
        <ele>149</ele>
        <time>2003-01-19T10:49:51Z</time>
      </trkpt>
      <trkpt lat="44.370410358533263" lon="11.216247081756592">
        <ele>144</ele>
        <time>2003-01-19T10:49:54Z</time>
      </trkpt>
      <trkpt lat="44.37004566192627" lon="11.216955184936523">
        <ele>141</ele>
        <time>2003-01-19T10:49:56Z</time>
      </trkpt>
      <trkpt lat="44.370303237810731" lon="11.217341423034668">
        <ele>126</ele>
        <time>2004-12-08T11:07:52Z</time>
      </trkpt>
      <trkpt lat="44.370410358533263" lon="11.217749118804932">
        <ele>126</ele>
        <time>2004-12-08T11:07:57Z</time>
      </trkpt>
      <trkpt lat="44.370603561401367" lon="11.219229698181152">
        <ele>122</ele>
        <time>2004-12-08T11:08:11Z</time>
      </trkpt>
      <trkpt lat="44.371075630187988" lon="11.220581531524658">
        <ele>119</ele>
        <time>2004-12-08T11:08:23Z</time>
      </trkpt>
      <trkpt lat="44.371976936236024" lon="11.221954822540283">
        <ele>119</ele>
        <time>2004-12-08T11:08:40Z</time>
      </trkpt>
      <trkpt lat="44.373006820678711" lon="11.223113536834717">
        <ele>120</ele>
        <time>2004-12-08T11:08:57Z</time>
      </trkpt>
      <trkpt lat="44.373800838366151" lon="11.224014759063721">
        <ele>121</ele>
        <time>2004-12-08T11:09:10Z</time>
      </trkpt>
      <trkpt lat="44.374616062268615" lon="11.225109100341797">
        <ele>121</ele>
        <time>2004-12-08T11:09:27Z</time>
      </trkpt>
      <trkpt lat="44.375581741333008" lon="11.226139068603516">
        <ele>121</ele>
        <time>2004-12-08T11:09:46Z</time>
      </trkpt>
      <trkpt lat="44.376397132873535" lon="11.227576732635498">
        <ele>123</ele>
        <time>2004-12-08T11:10:06Z</time>
      </trkpt>
      <trkpt lat="44.377105236053467" lon="11.229314804077148">
        <ele>122</ele>
        <time>2004-12-08T11:10:27Z</time>
      </trkpt>
      <trkpt lat="44.377920627593994" lon="11.230409061536193">
        <ele>122</ele>
        <time>2004-12-08T11:10:44Z</time>
      </trkpt>
      <trkpt lat="44.379186630249023" lon="11.231567859649658">
        <ele>123</ele>
        <time>2004-12-08T11:11:07Z</time>
      </trkpt>
      <trkpt lat="44.379937564954162" lon="11.232190132141113">
        <ele>124</ele>
        <time>2004-12-08T11:11:21Z</time>
      </trkpt>
      <trkpt lat="44.380903160199523" lon="11.233241641893983">
        <ele>125</ele>
        <time>2004-12-08T11:11:42Z</time>
      </trkpt>
      <trkpt lat="44.381847381591797" lon="11.234228610992432">
        <ele>124</ele>
        <time>2004-12-08T11:12:00Z</time>
      </trkpt>
      <trkpt lat="44.38326358795166" lon="11.235666275024414">
        <ele>124</ele>
        <time>2004-12-08T11:12:26Z</time>
      </trkpt>
      <trkpt lat="44.384379386901855" lon="11.236352920532227">
        <ele>125</ele>
        <time>2004-12-08T11:12:46Z</time>
      </trkpt>
      <trkpt lat="44.385538101196289" lon="11.237339973449707">
        <ele>125</ele>
        <time>2004-12-08T11:13:07Z</time>
      </trkpt>
      <trkpt lat="44.386417865753174" lon="11.238670265302062">
        <ele>123</ele>
        <time>2004-12-08T11:13:26Z</time>
      </trkpt>
      <trkpt lat="44.387276172637939" lon="11.240365505218506">
        <ele>123</ele>
        <time>2004-12-08T11:13:47Z</time>
      </trkpt>
      <trkpt lat="44.387490665540099" lon="11.241695880889893">
        <ele>125</ele>
        <time>2004-12-08T11:14:02Z</time>
      </trkpt>
      <trkpt lat="44.387555122375488" lon="11.242468440905213">
        <ele>127</ele>
        <time>2004-12-08T11:14:13Z</time>
      </trkpt>
      <trkpt lat="44.387662410736084" lon="11.24276876449585">
        <ele>127</ele>
        <time>2004-12-08T11:14:18Z</time>
      </trkpt>
      <trkpt lat="44.388477802276611" lon="11.243798732757568">
        <ele>126</ele>
        <time>2004-12-08T11:14:36Z</time>
      </trkpt>
      <trkpt lat="44.389078617095947" lon="11.2445068359375">
        <ele>127</ele>
        <time>2004-12-08T11:14:48Z</time>
      </trkpt>
      <trkpt lat="44.389443397521973" lon="11.245021820068359">
        <ele>125</ele>
        <time>2004-12-08T11:14:55Z</time>
      </trkpt>
      <trkpt lat="44.390237331390381" lon="11.245450973510742">
        <ele>123</ele>
        <time>2004-12-08T11:15:06Z</time>
      </trkpt>
      <trkpt lat="44.390559196472168" lon="11.245622634887695">
        <ele>123</ele>
        <time>2004-12-08T11:15:11Z</time>
      </trkpt>
      <trkpt lat="44.390666484832764" lon="11.245901584625244">
        <ele>123</ele>
        <time>2004-12-08T11:15:15Z</time>
      </trkpt>
      <trkpt lat="44.39100980758667" lon="11.24624490737915">
        <ele>122</ele>
        <time>2004-12-08T11:15:23Z</time>
      </trkpt>
      <trkpt lat="44.391074180603027" lon="11.246201992034912">
        <ele>122</ele>
        <time>2004-12-08T11:15:24Z</time>
      </trkpt>
      <trkpt lat="44.39128884114325" lon="11.246073162183166">
        <ele>122</ele>
        <time>2004-12-08T11:15:28Z</time>
      </trkpt>
      <trkpt lat="44.391610622406006" lon="11.246073162183166">
        <ele>123</ele>
        <time>2004-12-08T11:15:33Z</time>
      </trkpt>
      <trkpt lat="44.392619132995605" lon="11.24650239944458">
        <ele>124</ele>
        <time>2004-12-08T11:15:50Z</time>
      </trkpt>
      <trkpt lat="44.39274787902832" lon="11.246523940935731">
        <ele>124</ele>
        <time>2004-12-08T11:15:52Z</time>
      </trkpt>
      <trkpt lat="44.392876625061035" lon="11.246523940935731">
        <ele>124</ele>
        <time>2004-12-08T11:15:54Z</time>
      </trkpt>
      <trkpt lat="44.393692016601563" lon="11.246910095214844">
        <ele>124</ele>
        <time>2004-12-08T11:16:12Z</time>
      </trkpt>
      <trkpt lat="44.393734931945801" lon="11.246910095214844">
        <ele>123</ele>
        <time>2004-12-08T11:16:13Z</time>
      </trkpt>
      <trkpt lat="44.393799304962158" lon="11.246738433837891">
        <ele>123</ele>
        <time>2004-12-08T11:16:18Z</time>
      </trkpt>
      <trkpt lat="44.393906593322754" lon="11.246180534362793">
        <ele>124</ele>
        <time>2004-12-08T11:16:30Z</time>
      </trkpt>
    </trkseg>
  </trk>

  <trk>
    <name>Track 001</name>
    <trkseg>
      <trkpt lat="44.393455982208252" lon="11.200196659192443">
        <ele>513</ele>
        <time>1989-12-31T00:00:00Z</time>
      </trkpt>
      <trkpt lat="44.393477439880371" lon="11.20030403137207">
        <ele>513</ele>
        <time>2003-01-19T09:05:11Z</time>
      </trkpt>
      <trkpt lat="44.39349889755249" lon="11.200432777404785">
        <ele>513</ele>
        <time>2003-01-19T09:05:07Z</time>
      </trkpt>
      <trkpt lat="44.393541812896729" lon="11.2005615234375">
        <ele>514</ele>
        <time>2003-01-19T09:05:05Z</time>
      </trkpt>
      <trkpt lat="44.393606185913086" lon="11.20081901550293">
        <ele>514</ele>
        <time>2003-01-19T09:05:02Z</time>
      </trkpt>
      <trkpt lat="44.393799304962158" lon="11.20135554112494">
        <ele>517</ele>
        <time>2003-01-19T09:04:55Z</time>
      </trkpt>
      <trkpt lat="44.393906593322754" lon="11.2015700340271">
        <ele>518</ele>
        <time>2003-01-19T09:04:52Z</time>
      </trkpt>
      <trkpt lat="44.39401388168335" lon="11.201784610748291">
        <ele>521</ele>
        <time>2003-01-19T09:04:49Z</time>
      </trkpt>
      <trkpt lat="44.394078338518739" lon="11.201913440600038">
        <ele>521</ele>
        <time>2003-01-19T09:04:47Z</time>
      </trkpt>
      <trkpt lat="44.394142627716064" lon="11.202127933502197">
        <ele>523</ele>
        <time>2003-01-19T09:04:43Z</time>
      </trkpt>
      <trkpt lat="44.394185459241271" lon="11.20255708694458">
        <ele>525</ele>
        <time>2003-01-19T09:04:32Z</time>
      </trkpt>
      <trkpt lat="44.394292831420898" lon="11.202986240386963">
        <ele>525</ele>
        <time>2003-01-19T09:04:11Z</time>
      </trkpt>
      <trkpt lat="44.394400119781494" lon="11.203179359436035">
        <ele>525</ele>
        <time>1989-12-31T00:00:00Z</time>
      </trkpt>
    </trkseg>
  </trk>

</gpx>
